<?xml version="1.0" encoding="UTF-8" standalone="no" ?>
<gpx xmlns="http://www.topografix.com/GPX/1/1" xmlns:xsi="http://www.w3.org/2001/XMLSchema-instance" xsi:schemaLocation="http://www.topografix.com/GPX/1/1 http://www.topografix.com/GPX/1/1/gpx.xsd" version="1.1" creator="VisuGPX - https://www.visugpx.com">
  <metadata>
    <name>Rando Aussac seuil 5 m</name>
    <desc><![CDATA[Randonnée à majorité sentier, beaux paysages]]></desc>
  </metadata>
  <trk>
    <name><![CDATA[Tracé actuel: 04 FEV 2017 14:21]]></name>
    <trkseg>
      <trkpt lat="44.11809" lon="1.40121">
        <ele>183.75</ele>
        <time>2017-02-04T13:21:56Z</time>
      </trkpt>
      <trkpt lat="44.11817" lon="1.40118">
        <ele>200.09</ele>
        <time>2017-02-04T13:22:20Z</time>
      </trkpt>
      <trkpt lat="44.11816" lon="1.40119">
        <ele>200.57</ele>
        <time>2017-02-04T13:22:40Z</time>
      </trkpt>
      <trkpt lat="44.11813" lon="1.40097">
        <ele>198.65</ele>
        <time>2017-02-04T13:22:54Z</time>
      </trkpt>
      <trkpt lat="44.11793" lon="1.40098">
        <ele>195.77</ele>
        <time>2017-02-04T13:23:09Z</time>
      </trkpt>
      <trkpt lat="44.11787" lon="1.40097">
        <ele>194.8</ele>
        <time>2017-02-04T13:23:22Z</time>
      </trkpt>
      <trkpt lat="44.11786" lon="1.40096">
        <ele>192.4</ele>
        <time>2017-02-04T13:23:36Z</time>
      </trkpt>
      <trkpt lat="44.11781" lon="1.40094">
        <ele>190.48</ele>
        <time>2017-02-04T13:23:45Z</time>
      </trkpt>
      <trkpt lat="44.1178" lon="1.40081">
        <ele>189.52</ele>
        <time>2017-02-04T13:23:56Z</time>
      </trkpt>
      <trkpt lat="44.11776" lon="1.40074">
        <ele>189.04</ele>
        <time>2017-02-04T13:24:06Z</time>
      </trkpt>
      <trkpt lat="44.11774" lon="1.40068">
        <ele>189.04</ele>
        <time>2017-02-04T13:24:10Z</time>
      </trkpt>
      <trkpt lat="44.11772" lon="1.40062">
        <ele>189.52</ele>
        <time>2017-02-04T13:24:23Z</time>
      </trkpt>
      <trkpt lat="44.11771" lon="1.40061">
        <ele>189.52</ele>
        <time>2017-02-04T13:24:34Z</time>
      </trkpt>
      <trkpt lat="44.1177" lon="1.40056">
        <ele>189.52</ele>
        <time>2017-02-04T13:24:48Z</time>
      </trkpt>
      <trkpt lat="44.11769" lon="1.40049">
        <ele>189.04</ele>
        <time>2017-02-04T13:24:58Z</time>
      </trkpt>
      <trkpt lat="44.11765" lon="1.40041">
        <ele>189.52</ele>
        <time>2017-02-04T13:25:09Z</time>
      </trkpt>
      <trkpt lat="44.1176" lon="1.40031">
        <ele>190</ele>
        <time>2017-02-04T13:25:21Z</time>
      </trkpt>
      <trkpt lat="44.11753" lon="1.40017">
        <ele>191.44</ele>
        <time>2017-02-04T13:25:35Z</time>
      </trkpt>
      <trkpt lat="44.11744" lon="1.40004">
        <ele>192.88</ele>
        <time>2017-02-04T13:25:48Z</time>
      </trkpt>
      <trkpt lat="44.11732" lon="1.39988">
        <ele>192.88</ele>
        <time>2017-02-04T13:26:03Z</time>
      </trkpt>
      <trkpt lat="44.1172" lon="1.39974">
        <ele>192.88</ele>
        <time>2017-02-04T13:26:18Z</time>
      </trkpt>
      <trkpt lat="44.11714" lon="1.3996">
        <ele>193.36</ele>
        <time>2017-02-04T13:26:31Z</time>
      </trkpt>
      <trkpt lat="44.11706" lon="1.39937">
        <ele>193.84</ele>
        <time>2017-02-04T13:26:47Z</time>
      </trkpt>
      <trkpt lat="44.11695" lon="1.39915">
        <ele>193.84</ele>
        <time>2017-02-04T13:27:04Z</time>
      </trkpt>
      <trkpt lat="44.1169" lon="1.39907">
        <ele>193.84</ele>
        <time>2017-02-04T13:27:14Z</time>
      </trkpt>
      <trkpt lat="44.1167" lon="1.39891">
        <ele>193.84</ele>
        <time>2017-02-04T13:27:32Z</time>
      </trkpt>
      <trkpt lat="44.11647" lon="1.39883">
        <ele>194.8</ele>
        <time>2017-02-04T13:27:50Z</time>
      </trkpt>
      <trkpt lat="44.11621" lon="1.39873">
        <ele>195.77</ele>
        <time>2017-02-04T13:28:10Z</time>
      </trkpt>
      <trkpt lat="44.11603" lon="1.39865">
        <ele>195.28</ele>
        <time>2017-02-04T13:28:25Z</time>
      </trkpt>
      <trkpt lat="44.11583" lon="1.39858">
        <ele>196.73</ele>
        <time>2017-02-04T13:28:41Z</time>
      </trkpt>
      <trkpt lat="44.11565" lon="1.39848">
        <ele>197.21</ele>
        <time>2017-02-04T13:28:57Z</time>
      </trkpt>
      <trkpt lat="44.11563" lon="1.39847">
        <ele>197.21</ele>
        <time>2017-02-04T13:28:59Z</time>
      </trkpt>
      <trkpt lat="44.1155" lon="1.39839">
        <ele>197.69</ele>
        <time>2017-02-04T13:29:16Z</time>
      </trkpt>
      <trkpt lat="44.11529" lon="1.39834">
        <ele>198.17</ele>
        <time>2017-02-04T13:29:34Z</time>
      </trkpt>
      <trkpt lat="44.11515" lon="1.39832">
        <ele>201.05</ele>
        <time>2017-02-04T13:29:47Z</time>
      </trkpt>
      <trkpt lat="44.11506" lon="1.39833">
        <ele>202.01</ele>
        <time>2017-02-04T13:30:01Z</time>
      </trkpt>
      <trkpt lat="44.11486" lon="1.39834">
        <ele>200.09</ele>
        <time>2017-02-04T13:30:18Z</time>
      </trkpt>
      <trkpt lat="44.11464" lon="1.39838">
        <ele>197.69</ele>
        <time>2017-02-04T13:30:36Z</time>
      </trkpt>
      <trkpt lat="44.11441" lon="1.39846">
        <ele>195.77</ele>
        <time>2017-02-04T13:30:54Z</time>
      </trkpt>
      <trkpt lat="44.1142" lon="1.39857">
        <ele>194.32</ele>
        <time>2017-02-04T13:31:11Z</time>
      </trkpt>
      <trkpt lat="44.11405" lon="1.39868">
        <ele>195.77</ele>
        <time>2017-02-04T13:31:25Z</time>
      </trkpt>
      <trkpt lat="44.114" lon="1.39871">
        <ele>196.25</ele>
        <time>2017-02-04T13:31:29Z</time>
      </trkpt>
      <trkpt lat="44.11378" lon="1.39876">
        <ele>194.8</ele>
        <time>2017-02-04T13:31:47Z</time>
      </trkpt>
      <trkpt lat="44.1136" lon="1.39877">
        <ele>197.21</ele>
        <time>2017-02-04T13:32:02Z</time>
      </trkpt>
      <trkpt lat="44.1135" lon="1.39879">
        <ele>198.17</ele>
        <time>2017-02-04T13:32:11Z</time>
      </trkpt>
      <trkpt lat="44.11329" lon="1.39874">
        <ele>197.69</ele>
        <time>2017-02-04T13:32:29Z</time>
      </trkpt>
      <trkpt lat="44.11317" lon="1.39865">
        <ele>198.17</ele>
        <time>2017-02-04T13:32:41Z</time>
      </trkpt>
      <trkpt lat="44.11312" lon="1.3986">
        <ele>198.17</ele>
        <time>2017-02-04T13:32:47Z</time>
      </trkpt>
      <trkpt lat="44.11299" lon="1.39847">
        <ele>198.17</ele>
        <time>2017-02-04T13:33:00Z</time>
      </trkpt>
      <trkpt lat="44.11287" lon="1.39832">
        <ele>199.13</ele>
        <time>2017-02-04T13:33:13Z</time>
      </trkpt>
      <trkpt lat="44.11277" lon="1.39821">
        <ele>198.65</ele>
        <time>2017-02-04T13:33:24Z</time>
      </trkpt>
      <trkpt lat="44.1126" lon="1.39809">
        <ele>198.65</ele>
        <time>2017-02-04T13:33:41Z</time>
      </trkpt>
      <trkpt lat="44.11251" lon="1.398">
        <ele>199.13</ele>
        <time>2017-02-04T13:33:52Z</time>
      </trkpt>
      <trkpt lat="44.11245" lon="1.39791">
        <ele>198.17</ele>
        <time>2017-02-04T13:34:07Z</time>
      </trkpt>
      <trkpt lat="44.1124" lon="1.39784">
        <ele>199.61</ele>
        <time>2017-02-04T13:34:19Z</time>
      </trkpt>
      <trkpt lat="44.11229" lon="1.39768">
        <ele>202.49</ele>
        <time>2017-02-04T13:34:34Z</time>
      </trkpt>
      <trkpt lat="44.11221" lon="1.39757">
        <ele>202.98</ele>
        <time>2017-02-04T13:34:46Z</time>
      </trkpt>
      <trkpt lat="44.11211" lon="1.39748">
        <ele>203.46</ele>
        <time>2017-02-04T13:35:00Z</time>
      </trkpt>
      <trkpt lat="44.112" lon="1.39741">
        <ele>202.01</ele>
        <time>2017-02-04T13:35:12Z</time>
      </trkpt>
      <trkpt lat="44.11188" lon="1.39734">
        <ele>198.17</ele>
        <time>2017-02-04T13:35:25Z</time>
      </trkpt>
      <trkpt lat="44.11186" lon="1.39734">
        <ele>198.17</ele>
        <time>2017-02-04T13:35:26Z</time>
      </trkpt>
      <trkpt lat="44.11167" lon="1.39731">
        <ele>190.96</ele>
        <time>2017-02-04T13:35:43Z</time>
      </trkpt>
      <trkpt lat="44.1115" lon="1.39732">
        <ele>183.75</ele>
        <time>2017-02-04T13:35:59Z</time>
      </trkpt>
      <trkpt lat="44.11131" lon="1.39735">
        <ele>180.38</ele>
        <time>2017-02-04T13:36:18Z</time>
      </trkpt>
      <trkpt lat="44.11118" lon="1.39741">
        <ele>180.87</ele>
        <time>2017-02-04T13:36:34Z</time>
      </trkpt>
      <trkpt lat="44.11104" lon="1.39749">
        <ele>179.9</ele>
        <time>2017-02-04T13:36:49Z</time>
      </trkpt>
      <trkpt lat="44.11101" lon="1.39752">
        <ele>179.9</ele>
        <time>2017-02-04T13:36:52Z</time>
      </trkpt>
      <trkpt lat="44.11085" lon="1.39761">
        <ele>179.9</ele>
        <time>2017-02-04T13:37:08Z</time>
      </trkpt>
      <trkpt lat="44.11062" lon="1.39772">
        <ele>177.02</ele>
        <time>2017-02-04T13:37:26Z</time>
      </trkpt>
      <trkpt lat="44.11047" lon="1.39779">
        <ele>176.54</ele>
        <time>2017-02-04T13:37:41Z</time>
      </trkpt>
      <trkpt lat="44.1103" lon="1.39781">
        <ele>176.54</ele>
        <time>2017-02-04T13:37:56Z</time>
      </trkpt>
      <trkpt lat="44.11029" lon="1.39781">
        <ele>176.54</ele>
        <time>2017-02-04T13:37:57Z</time>
      </trkpt>
      <trkpt lat="44.11016" lon="1.39781">
        <ele>178.46</ele>
        <time>2017-02-04T13:38:11Z</time>
      </trkpt>
      <trkpt lat="44.11005" lon="1.39778">
        <ele>177.5</ele>
        <time>2017-02-04T13:38:22Z</time>
      </trkpt>
      <trkpt lat="44.10983" lon="1.39773">
        <ele>175.58</ele>
        <time>2017-02-04T13:38:39Z</time>
      </trkpt>
      <trkpt lat="44.10961" lon="1.39773">
        <ele>173.17</ele>
        <time>2017-02-04T13:38:57Z</time>
      </trkpt>
      <trkpt lat="44.10942" lon="1.39781">
        <ele>169.81</ele>
        <time>2017-02-04T13:39:15Z</time>
      </trkpt>
      <trkpt lat="44.10926" lon="1.39793">
        <ele>167.89</ele>
        <time>2017-02-04T13:39:30Z</time>
      </trkpt>
      <trkpt lat="44.10908" lon="1.39807">
        <ele>168.37</ele>
        <time>2017-02-04T13:39:47Z</time>
      </trkpt>
      <trkpt lat="44.10893" lon="1.39821">
        <ele>165.96</ele>
        <time>2017-02-04T13:40:04Z</time>
      </trkpt>
      <trkpt lat="44.10879" lon="1.3983">
        <ele>159.24</ele>
        <time>2017-02-04T13:40:21Z</time>
      </trkpt>
      <trkpt lat="44.10872" lon="1.39839">
        <ele>156.35</ele>
        <time>2017-02-04T13:40:34Z</time>
      </trkpt>
      <trkpt lat="44.10869" lon="1.3984">
        <ele>155.87</ele>
        <time>2017-02-04T13:40:53Z</time>
      </trkpt>
      <trkpt lat="44.10866" lon="1.39843">
        <ele>154.91</ele>
        <time>2017-02-04T13:41:08Z</time>
      </trkpt>
      <trkpt lat="44.10864" lon="1.39844">
        <ele>153.47</ele>
        <time>2017-02-04T13:41:24Z</time>
      </trkpt>
      <trkpt lat="44.10856" lon="1.39844">
        <ele>152.51</ele>
        <time>2017-02-04T13:41:37Z</time>
      </trkpt>
      <trkpt lat="44.10852" lon="1.39842">
        <ele>150.58</ele>
        <time>2017-02-04T13:41:49Z</time>
      </trkpt>
      <trkpt lat="44.10847" lon="1.3984">
        <ele>148.66</ele>
        <time>2017-02-04T13:42:03Z</time>
      </trkpt>
      <trkpt lat="44.10843" lon="1.39836">
        <ele>147.7</ele>
        <time>2017-02-04T13:42:18Z</time>
      </trkpt>
      <trkpt lat="44.10831" lon="1.39829">
        <ele>146.26</ele>
        <time>2017-02-04T13:42:34Z</time>
      </trkpt>
      <trkpt lat="44.1082" lon="1.39821">
        <ele>145.3</ele>
        <time>2017-02-04T13:42:51Z</time>
      </trkpt>
      <trkpt lat="44.10814" lon="1.39817">
        <ele>144.34</ele>
        <time>2017-02-04T13:43:08Z</time>
      </trkpt>
      <trkpt lat="44.10813" lon="1.39814">
        <ele>143.37</ele>
        <time>2017-02-04T13:43:21Z</time>
      </trkpt>
      <trkpt lat="44.10809" lon="1.39815">
        <ele>142.41</ele>
        <time>2017-02-04T13:43:34Z</time>
      </trkpt>
      <trkpt lat="44.10808" lon="1.39815">
        <ele>141.93</ele>
        <time>2017-02-04T13:43:54Z</time>
      </trkpt>
      <trkpt lat="44.10807" lon="1.39815">
        <ele>141.45</ele>
        <time>2017-02-04T13:44:25Z</time>
      </trkpt>
      <trkpt lat="44.10802" lon="1.3981">
        <ele>141.45</ele>
        <time>2017-02-04T13:44:41Z</time>
      </trkpt>
      <trkpt lat="44.10795" lon="1.39805">
        <ele>141.45</ele>
        <time>2017-02-04T13:44:59Z</time>
      </trkpt>
      <trkpt lat="44.10789" lon="1.398">
        <ele>141.45</ele>
        <time>2017-02-04T13:45:16Z</time>
      </trkpt>
      <trkpt lat="44.10782" lon="1.39796">
        <ele>140.97</ele>
        <time>2017-02-04T13:45:31Z</time>
      </trkpt>
      <trkpt lat="44.10773" lon="1.39793">
        <ele>140.97</ele>
        <time>2017-02-04T13:45:44Z</time>
      </trkpt>
      <trkpt lat="44.10764" lon="1.39784">
        <ele>140.97</ele>
        <time>2017-02-04T13:45:59Z</time>
      </trkpt>
      <trkpt lat="44.10751" lon="1.3978">
        <ele>137.13</ele>
        <time>2017-02-04T13:46:15Z</time>
      </trkpt>
      <trkpt lat="44.10743" lon="1.39779">
        <ele>135.2</ele>
        <time>2017-02-04T13:46:21Z</time>
      </trkpt>
      <trkpt lat="44.10726" lon="1.39779">
        <ele>132.32</ele>
        <time>2017-02-04T13:46:37Z</time>
      </trkpt>
      <trkpt lat="44.10721" lon="1.39779">
        <ele>131.84</ele>
        <time>2017-02-04T13:46:54Z</time>
      </trkpt>
      <trkpt lat="44.10718" lon="1.39778">
        <ele>130.4</ele>
        <time>2017-02-04T13:47:14Z</time>
      </trkpt>
      <trkpt lat="44.1071" lon="1.39781">
        <ele>129.92</ele>
        <time>2017-02-04T13:47:33Z</time>
      </trkpt>
      <trkpt lat="44.10701" lon="1.39797">
        <ele>131.36</ele>
        <time>2017-02-04T13:47:49Z</time>
      </trkpt>
      <trkpt lat="44.10685" lon="1.39812">
        <ele>133.76</ele>
        <time>2017-02-04T13:48:06Z</time>
      </trkpt>
      <trkpt lat="44.10676" lon="1.39829">
        <ele>135.2</ele>
        <time>2017-02-04T13:48:20Z</time>
      </trkpt>
      <trkpt lat="44.1067" lon="1.39846">
        <ele>139.53</ele>
        <time>2017-02-04T13:48:35Z</time>
      </trkpt>
      <trkpt lat="44.10663" lon="1.39866">
        <ele>145.3</ele>
        <time>2017-02-04T13:48:50Z</time>
      </trkpt>
      <trkpt lat="44.10656" lon="1.39891">
        <ele>149.62</ele>
        <time>2017-02-04T13:49:05Z</time>
      </trkpt>
      <trkpt lat="44.10648" lon="1.39897">
        <ele>147.7</ele>
        <time>2017-02-04T13:49:20Z</time>
      </trkpt>
      <trkpt lat="44.10645" lon="1.39899">
        <ele>145.3</ele>
        <time>2017-02-04T13:49:47Z</time>
      </trkpt>
      <trkpt lat="44.10642" lon="1.39901">
        <ele>143.37</ele>
        <time>2017-02-04T13:50:10Z</time>
      </trkpt>
      <trkpt lat="44.10638" lon="1.39904">
        <ele>143.37</ele>
        <time>2017-02-04T13:50:14Z</time>
      </trkpt>
      <trkpt lat="44.10632" lon="1.39918">
        <ele>143.85</ele>
        <time>2017-02-04T13:50:24Z</time>
      </trkpt>
      <trkpt lat="44.1063" lon="1.3992">
        <ele>143.85</ele>
        <time>2017-02-04T13:50:26Z</time>
      </trkpt>
      <trkpt lat="44.10618" lon="1.39936">
        <ele>146.74</ele>
        <time>2017-02-04T13:50:40Z</time>
      </trkpt>
      <trkpt lat="44.10597" lon="1.39949">
        <ele>140.49</ele>
        <time>2017-02-04T13:50:55Z</time>
      </trkpt>
      <trkpt lat="44.1058" lon="1.39969">
        <ele>132.32</ele>
        <time>2017-02-04T13:51:11Z</time>
      </trkpt>
      <trkpt lat="44.10569" lon="1.39987">
        <ele>126.55</ele>
        <time>2017-02-04T13:51:25Z</time>
      </trkpt>
      <trkpt lat="44.10556" lon="1.40006">
        <ele>121.74</ele>
        <time>2017-02-04T13:51:42Z</time>
      </trkpt>
      <trkpt lat="44.10537" lon="1.40027">
        <ele>116.46</ele>
        <time>2017-02-04T13:52:01Z</time>
      </trkpt>
      <trkpt lat="44.1052" lon="1.40044">
        <ele>113.57</ele>
        <time>2017-02-04T13:52:19Z</time>
      </trkpt>
      <trkpt lat="44.10509" lon="1.40058">
        <ele>112.61</ele>
        <time>2017-02-04T13:52:35Z</time>
      </trkpt>
      <trkpt lat="44.105" lon="1.40076">
        <ele>112.13</ele>
        <time>2017-02-04T13:52:51Z</time>
      </trkpt>
      <trkpt lat="44.10494" lon="1.40097">
        <ele>112.61</ele>
        <time>2017-02-04T13:53:07Z</time>
      </trkpt>
      <trkpt lat="44.10482" lon="1.40116">
        <ele>111.65</ele>
        <time>2017-02-04T13:53:27Z</time>
      </trkpt>
      <trkpt lat="44.10469" lon="1.40136">
        <ele>110.21</ele>
        <time>2017-02-04T13:53:43Z</time>
      </trkpt>
      <trkpt lat="44.10458" lon="1.40153">
        <ele>107.81</ele>
        <time>2017-02-04T13:54:00Z</time>
      </trkpt>
      <trkpt lat="44.10445" lon="1.40173">
        <ele>106.84</ele>
        <time>2017-02-04T13:54:18Z</time>
      </trkpt>
      <trkpt lat="44.10441" lon="1.40186">
        <ele>107.32</ele>
        <time>2017-02-04T13:54:34Z</time>
      </trkpt>
      <trkpt lat="44.10438" lon="1.40182">
        <ele>106.36</ele>
        <time>2017-02-04T13:54:49Z</time>
      </trkpt>
      <trkpt lat="44.10435" lon="1.4017">
        <ele>106.36</ele>
        <time>2017-02-04T13:55:03Z</time>
      </trkpt>
      <trkpt lat="44.10433" lon="1.4015">
        <ele>108.77</ele>
        <time>2017-02-04T13:55:22Z</time>
      </trkpt>
      <trkpt lat="44.10431" lon="1.40137">
        <ele>108.29</ele>
        <time>2017-02-04T13:55:36Z</time>
      </trkpt>
      <trkpt lat="44.10429" lon="1.40125">
        <ele>108.77</ele>
        <time>2017-02-04T13:55:51Z</time>
      </trkpt>
      <trkpt lat="44.10428" lon="1.40109">
        <ele>113.57</ele>
        <time>2017-02-04T13:56:09Z</time>
      </trkpt>
      <trkpt lat="44.10427" lon="1.401">
        <ele>116.46</ele>
        <time>2017-02-04T13:56:24Z</time>
      </trkpt>
      <trkpt lat="44.10427" lon="1.40096">
        <ele>116.94</ele>
        <time>2017-02-04T13:56:32Z</time>
      </trkpt>
      <trkpt lat="44.1043" lon="1.40079">
        <ele>120.78</ele>
        <time>2017-02-04T13:56:46Z</time>
      </trkpt>
      <trkpt lat="44.10431" lon="1.40064">
        <ele>125.59</ele>
        <time>2017-02-04T13:57:01Z</time>
      </trkpt>
      <trkpt lat="44.1043" lon="1.40057">
        <ele>125.59</ele>
        <time>2017-02-04T13:57:16Z</time>
      </trkpt>
      <trkpt lat="44.10435" lon="1.40037">
        <ele>124.15</ele>
        <time>2017-02-04T13:57:31Z</time>
      </trkpt>
      <trkpt lat="44.10436" lon="1.40018">
        <ele>119.82</ele>
        <time>2017-02-04T13:57:48Z</time>
      </trkpt>
      <trkpt lat="44.10442" lon="1.39996">
        <ele>120.78</ele>
        <time>2017-02-04T13:58:07Z</time>
      </trkpt>
      <trkpt lat="44.10446" lon="1.39982">
        <ele>122.22</ele>
        <time>2017-02-04T13:58:21Z</time>
      </trkpt>
      <trkpt lat="44.10452" lon="1.39964">
        <ele>122.71</ele>
        <time>2017-02-04T13:58:36Z</time>
      </trkpt>
      <trkpt lat="44.10456" lon="1.39946">
        <ele>122.71</ele>
        <time>2017-02-04T13:58:50Z</time>
      </trkpt>
      <trkpt lat="44.10461" lon="1.39926">
        <ele>122.22</ele>
        <time>2017-02-04T13:59:05Z</time>
      </trkpt>
      <trkpt lat="44.10467" lon="1.39908">
        <ele>122.22</ele>
        <time>2017-02-04T13:59:21Z</time>
      </trkpt>
      <trkpt lat="44.10473" lon="1.3989">
        <ele>123.19</ele>
        <time>2017-02-04T13:59:37Z</time>
      </trkpt>
      <trkpt lat="44.10478" lon="1.3987">
        <ele>123.67</ele>
        <time>2017-02-04T13:59:54Z</time>
      </trkpt>
      <trkpt lat="44.10481" lon="1.3986">
        <ele>124.15</ele>
        <time>2017-02-04T14:00:02Z</time>
      </trkpt>
      <trkpt lat="44.10487" lon="1.39838">
        <ele>124.63</ele>
        <time>2017-02-04T14:00:19Z</time>
      </trkpt>
      <trkpt lat="44.10494" lon="1.39816">
        <ele>123.67</ele>
        <time>2017-02-04T14:00:38Z</time>
      </trkpt>
      <trkpt lat="44.105" lon="1.39796">
        <ele>125.11</ele>
        <time>2017-02-04T14:00:54Z</time>
      </trkpt>
      <trkpt lat="44.10505" lon="1.39778">
        <ele>126.07</ele>
        <time>2017-02-04T14:01:10Z</time>
      </trkpt>
      <trkpt lat="44.10507" lon="1.39763">
        <ele>127.99</ele>
        <time>2017-02-04T14:01:26Z</time>
      </trkpt>
      <trkpt lat="44.10514" lon="1.39746">
        <ele>129.92</ele>
        <time>2017-02-04T14:01:41Z</time>
      </trkpt>
      <trkpt lat="44.10519" lon="1.3973">
        <ele>130.88</ele>
        <time>2017-02-04T14:01:56Z</time>
      </trkpt>
      <trkpt lat="44.10525" lon="1.39714">
        <ele>131.36</ele>
        <time>2017-02-04T14:02:13Z</time>
      </trkpt>
      <trkpt lat="44.10532" lon="1.397">
        <ele>133.76</ele>
        <time>2017-02-04T14:02:27Z</time>
      </trkpt>
      <trkpt lat="44.10538" lon="1.39687">
        <ele>135.68</ele>
        <time>2017-02-04T14:02:41Z</time>
      </trkpt>
      <trkpt lat="44.10537" lon="1.39674">
        <ele>137.13</ele>
        <time>2017-02-04T14:02:55Z</time>
      </trkpt>
      <trkpt lat="44.10539" lon="1.39654">
        <ele>138.57</ele>
        <time>2017-02-04T14:03:11Z</time>
      </trkpt>
      <trkpt lat="44.10541" lon="1.39635">
        <ele>140.49</ele>
        <time>2017-02-04T14:03:28Z</time>
      </trkpt>
      <trkpt lat="44.10543" lon="1.39619">
        <ele>143.85</ele>
        <time>2017-02-04T14:03:44Z</time>
      </trkpt>
      <trkpt lat="44.10547" lon="1.39597">
        <ele>146.74</ele>
        <time>2017-02-04T14:04:02Z</time>
      </trkpt>
      <trkpt lat="44.10553" lon="1.39582">
        <ele>146.74</ele>
        <time>2017-02-04T14:04:17Z</time>
      </trkpt>
      <trkpt lat="44.1056" lon="1.3957">
        <ele>148.18</ele>
        <time>2017-02-04T14:04:32Z</time>
      </trkpt>
      <trkpt lat="44.10562" lon="1.39565">
        <ele>150.1</ele>
        <time>2017-02-04T14:04:37Z</time>
      </trkpt>
      <trkpt lat="44.10571" lon="1.39551">
        <ele>153.47</ele>
        <time>2017-02-04T14:04:52Z</time>
      </trkpt>
      <trkpt lat="44.10582" lon="1.39538">
        <ele>152.99</ele>
        <time>2017-02-04T14:05:07Z</time>
      </trkpt>
      <trkpt lat="44.10591" lon="1.39526">
        <ele>150.1</ele>
        <time>2017-02-04T14:05:23Z</time>
      </trkpt>
      <trkpt lat="44.10602" lon="1.39515">
        <ele>148.18</ele>
        <time>2017-02-04T14:05:38Z</time>
      </trkpt>
      <trkpt lat="44.10614" lon="1.39502">
        <ele>146.74</ele>
        <time>2017-02-04T14:05:54Z</time>
      </trkpt>
      <trkpt lat="44.10623" lon="1.3949">
        <ele>148.18</ele>
        <time>2017-02-04T14:06:07Z</time>
      </trkpt>
      <trkpt lat="44.1063" lon="1.39467">
        <ele>150.58</ele>
        <time>2017-02-04T14:06:25Z</time>
      </trkpt>
      <trkpt lat="44.10635" lon="1.39446">
        <ele>152.51</ele>
        <time>2017-02-04T14:06:41Z</time>
      </trkpt>
      <trkpt lat="44.1064" lon="1.39428">
        <ele>154.91</ele>
        <time>2017-02-04T14:06:57Z</time>
      </trkpt>
      <trkpt lat="44.1064" lon="1.39408">
        <ele>157.31</ele>
        <time>2017-02-04T14:07:12Z</time>
      </trkpt>
      <trkpt lat="44.10637" lon="1.3939">
        <ele>160.2</ele>
        <time>2017-02-04T14:07:27Z</time>
      </trkpt>
      <trkpt lat="44.10635" lon="1.39376">
        <ele>162.12</ele>
        <time>2017-02-04T14:07:40Z</time>
      </trkpt>
      <trkpt lat="44.10631" lon="1.3936">
        <ele>164.52</ele>
        <time>2017-02-04T14:07:55Z</time>
      </trkpt>
      <trkpt lat="44.1063" lon="1.39338">
        <ele>167.89</ele>
        <time>2017-02-04T14:08:13Z</time>
      </trkpt>
      <trkpt lat="44.1063" lon="1.3932">
        <ele>171.73</ele>
        <time>2017-02-04T14:08:29Z</time>
      </trkpt>
      <trkpt lat="44.10631" lon="1.39302">
        <ele>175.1</ele>
        <time>2017-02-04T14:08:45Z</time>
      </trkpt>
      <trkpt lat="44.10631" lon="1.39282">
        <ele>176.54</ele>
        <time>2017-02-04T14:09:02Z</time>
      </trkpt>
      <trkpt lat="44.10632" lon="1.39261">
        <ele>176.06</ele>
        <time>2017-02-04T14:09:20Z</time>
      </trkpt>
      <trkpt lat="44.10632" lon="1.39244">
        <ele>176.54</ele>
        <time>2017-02-04T14:09:35Z</time>
      </trkpt>
      <trkpt lat="44.10633" lon="1.39224">
        <ele>176.54</ele>
        <time>2017-02-04T14:09:51Z</time>
      </trkpt>
      <trkpt lat="44.10634" lon="1.39208">
        <ele>177.02</ele>
        <time>2017-02-04T14:10:04Z</time>
      </trkpt>
      <trkpt lat="44.10638" lon="1.39192">
        <ele>177.98</ele>
        <time>2017-02-04T14:10:16Z</time>
      </trkpt>
      <trkpt lat="44.10645" lon="1.39175">
        <ele>180.38</ele>
        <time>2017-02-04T14:10:32Z</time>
      </trkpt>
      <trkpt lat="44.10654" lon="1.39161">
        <ele>177.98</ele>
        <time>2017-02-04T14:10:46Z</time>
      </trkpt>
      <trkpt lat="44.10666" lon="1.39147">
        <ele>174.62</ele>
        <time>2017-02-04T14:11:01Z</time>
      </trkpt>
      <trkpt lat="44.10676" lon="1.39136">
        <ele>170.29</ele>
        <time>2017-02-04T14:11:15Z</time>
      </trkpt>
      <trkpt lat="44.10676" lon="1.39132">
        <ele>172.21</ele>
        <time>2017-02-04T14:11:35Z</time>
      </trkpt>
      <trkpt lat="44.10676" lon="1.39129">
        <ele>174.14</ele>
        <time>2017-02-04T14:12:03Z</time>
      </trkpt>
      <trkpt lat="44.10676" lon="1.39128">
        <ele>175.1</ele>
        <time>2017-02-04T14:12:29Z</time>
      </trkpt>
      <trkpt lat="44.10676" lon="1.39127">
        <ele>175.58</ele>
        <time>2017-02-04T14:12:49Z</time>
      </trkpt>
      <trkpt lat="44.10677" lon="1.39128">
        <ele>176.54</ele>
        <time>2017-02-04T14:13:22Z</time>
      </trkpt>
      <trkpt lat="44.10677" lon="1.3913">
        <ele>174.62</ele>
        <time>2017-02-04T14:13:57Z</time>
      </trkpt>
      <trkpt lat="44.10677" lon="1.39131">
        <ele>173.66</ele>
        <time>2017-02-04T14:14:26Z</time>
      </trkpt>
      <trkpt lat="44.10677" lon="1.39131">
        <ele>172.69</ele>
        <time>2017-02-04T14:14:53Z</time>
      </trkpt>
      <trkpt lat="44.10679" lon="1.39128">
        <ele>171.25</ele>
        <time>2017-02-04T14:15:20Z</time>
      </trkpt>
      <trkpt lat="44.10684" lon="1.39113">
        <ele>168.85</ele>
        <time>2017-02-04T14:15:35Z</time>
      </trkpt>
      <trkpt lat="44.10685" lon="1.39109">
        <ele>168.85</ele>
        <time>2017-02-04T14:15:40Z</time>
      </trkpt>
      <trkpt lat="44.10688" lon="1.39087">
        <ele>168.37</ele>
        <time>2017-02-04T14:15:56Z</time>
      </trkpt>
      <trkpt lat="44.10693" lon="1.39068">
        <ele>170.77</ele>
        <time>2017-02-04T14:16:13Z</time>
      </trkpt>
      <trkpt lat="44.10699" lon="1.39061">
        <ele>175.1</ele>
        <time>2017-02-04T14:16:29Z</time>
      </trkpt>
      <trkpt lat="44.10709" lon="1.39046">
        <ele>178.46</ele>
        <time>2017-02-04T14:16:47Z</time>
      </trkpt>
      <trkpt lat="44.10717" lon="1.39033">
        <ele>181.83</ele>
        <time>2017-02-04T14:17:04Z</time>
      </trkpt>
      <trkpt lat="44.10728" lon="1.39013">
        <ele>184.23</ele>
        <time>2017-02-04T14:17:22Z</time>
      </trkpt>
      <trkpt lat="44.10734" lon="1.38995">
        <ele>186.63</ele>
        <time>2017-02-04T14:17:41Z</time>
      </trkpt>
      <trkpt lat="44.10735" lon="1.38983">
        <ele>188.56</ele>
        <time>2017-02-04T14:17:56Z</time>
      </trkpt>
      <trkpt lat="44.10736" lon="1.38963">
        <ele>190</ele>
        <time>2017-02-04T14:18:14Z</time>
      </trkpt>
      <trkpt lat="44.10737" lon="1.38928">
        <ele>191.92</ele>
        <time>2017-02-04T14:18:32Z</time>
      </trkpt>
      <trkpt lat="44.10732" lon="1.38902">
        <ele>193.84</ele>
        <time>2017-02-04T14:18:51Z</time>
      </trkpt>
      <trkpt lat="44.10725" lon="1.38884">
        <ele>198.17</ele>
        <time>2017-02-04T14:19:08Z</time>
      </trkpt>
      <trkpt lat="44.10719" lon="1.38864">
        <ele>199.61</ele>
        <time>2017-02-04T14:19:25Z</time>
      </trkpt>
      <trkpt lat="44.10713" lon="1.3885">
        <ele>197.21</ele>
        <time>2017-02-04T14:19:42Z</time>
      </trkpt>
      <trkpt lat="44.10711" lon="1.38849">
        <ele>195.28</ele>
        <time>2017-02-04T14:20:04Z</time>
      </trkpt>
      <trkpt lat="44.1071" lon="1.38848">
        <ele>194.32</ele>
        <time>2017-02-04T14:20:28Z</time>
      </trkpt>
      <trkpt lat="44.1071" lon="1.38847">
        <ele>194.32</ele>
        <time>2017-02-04T14:20:36Z</time>
      </trkpt>
      <trkpt lat="44.107" lon="1.38827">
        <ele>194.32</ele>
        <time>2017-02-04T14:20:55Z</time>
      </trkpt>
      <trkpt lat="44.10699" lon="1.38805">
        <ele>193.36</ele>
        <time>2017-02-04T14:21:10Z</time>
      </trkpt>
      <trkpt lat="44.10696" lon="1.38785">
        <ele>193.84</ele>
        <time>2017-02-04T14:21:24Z</time>
      </trkpt>
      <trkpt lat="44.10694" lon="1.38758">
        <ele>193.84</ele>
        <time>2017-02-04T14:21:42Z</time>
      </trkpt>
      <trkpt lat="44.10691" lon="1.38737">
        <ele>192.88</ele>
        <time>2017-02-04T14:21:58Z</time>
      </trkpt>
      <trkpt lat="44.10688" lon="1.38721">
        <ele>191.92</ele>
        <time>2017-02-04T14:22:10Z</time>
      </trkpt>
      <trkpt lat="44.10686" lon="1.38697">
        <ele>191.92</ele>
        <time>2017-02-04T14:22:27Z</time>
      </trkpt>
      <trkpt lat="44.10683" lon="1.38674">
        <ele>192.4</ele>
        <time>2017-02-04T14:22:43Z</time>
      </trkpt>
      <trkpt lat="44.1068" lon="1.3865">
        <ele>191.44</ele>
        <time>2017-02-04T14:23:00Z</time>
      </trkpt>
      <trkpt lat="44.10678" lon="1.38627">
        <ele>192.4</ele>
        <time>2017-02-04T14:23:17Z</time>
      </trkpt>
      <trkpt lat="44.10674" lon="1.38614">
        <ele>193.36</ele>
        <time>2017-02-04T14:23:27Z</time>
      </trkpt>
      <trkpt lat="44.1067" lon="1.38593">
        <ele>194.8</ele>
        <time>2017-02-04T14:23:42Z</time>
      </trkpt>
      <trkpt lat="44.10662" lon="1.3857">
        <ele>195.28</ele>
        <time>2017-02-04T14:23:59Z</time>
      </trkpt>
      <trkpt lat="44.10653" lon="1.38547">
        <ele>195.77</ele>
        <time>2017-02-04T14:24:17Z</time>
      </trkpt>
      <trkpt lat="44.10646" lon="1.38529">
        <ele>195.77</ele>
        <time>2017-02-04T14:24:32Z</time>
      </trkpt>
      <trkpt lat="44.10632" lon="1.38515">
        <ele>196.25</ele>
        <time>2017-02-04T14:24:47Z</time>
      </trkpt>
      <trkpt lat="44.10613" lon="1.38504">
        <ele>195.28</ele>
        <time>2017-02-04T14:25:04Z</time>
      </trkpt>
      <trkpt lat="44.10597" lon="1.38496">
        <ele>194.32</ele>
        <time>2017-02-04T14:25:21Z</time>
      </trkpt>
      <trkpt lat="44.10595" lon="1.38495">
        <ele>194.8</ele>
        <time>2017-02-04T14:25:36Z</time>
      </trkpt>
      <trkpt lat="44.10574" lon="1.38504">
        <ele>193.84</ele>
        <time>2017-02-04T14:25:55Z</time>
      </trkpt>
      <trkpt lat="44.10559" lon="1.38512">
        <ele>192.88</ele>
        <time>2017-02-04T14:26:11Z</time>
      </trkpt>
      <trkpt lat="44.1055" lon="1.38515">
        <ele>193.36</ele>
        <time>2017-02-04T14:26:27Z</time>
      </trkpt>
      <trkpt lat="44.10535" lon="1.3852">
        <ele>192.88</ele>
        <time>2017-02-04T14:26:41Z</time>
      </trkpt>
      <trkpt lat="44.10513" lon="1.3853">
        <ele>192.4</ele>
        <time>2017-02-04T14:27:00Z</time>
      </trkpt>
      <trkpt lat="44.10491" lon="1.38539">
        <ele>192.4</ele>
        <time>2017-02-04T14:27:18Z</time>
      </trkpt>
      <trkpt lat="44.1047" lon="1.38549">
        <ele>193.84</ele>
        <time>2017-02-04T14:27:36Z</time>
      </trkpt>
      <trkpt lat="44.10452" lon="1.38557">
        <ele>194.32</ele>
        <time>2017-02-04T14:27:52Z</time>
      </trkpt>
      <trkpt lat="44.10433" lon="1.38566">
        <ele>194.32</ele>
        <time>2017-02-04T14:28:09Z</time>
      </trkpt>
      <trkpt lat="44.10417" lon="1.38574">
        <ele>194.8</ele>
        <time>2017-02-04T14:28:24Z</time>
      </trkpt>
      <trkpt lat="44.10403" lon="1.3858">
        <ele>195.77</ele>
        <time>2017-02-04T14:28:38Z</time>
      </trkpt>
      <trkpt lat="44.10391" lon="1.38582">
        <ele>196.25</ele>
        <time>2017-02-04T14:28:51Z</time>
      </trkpt>
      <trkpt lat="44.10383" lon="1.38579">
        <ele>195.77</ele>
        <time>2017-02-04T14:29:06Z</time>
      </trkpt>
      <trkpt lat="44.10384" lon="1.38581">
        <ele>196.25</ele>
        <time>2017-02-04T14:29:24Z</time>
      </trkpt>
      <trkpt lat="44.10384" lon="1.38581">
        <ele>195.77</ele>
        <time>2017-02-04T14:29:36Z</time>
      </trkpt>
      <trkpt lat="44.10384" lon="1.3858">
        <ele>196.25</ele>
        <time>2017-02-04T14:29:48Z</time>
      </trkpt>
      <trkpt lat="44.10388" lon="1.38562">
        <ele>195.77</ele>
        <time>2017-02-04T14:30:01Z</time>
      </trkpt>
      <trkpt lat="44.10391" lon="1.38555">
        <ele>196.25</ele>
        <time>2017-02-04T14:30:06Z</time>
      </trkpt>
      <trkpt lat="44.10403" lon="1.3853">
        <ele>199.13</ele>
        <time>2017-02-04T14:30:24Z</time>
      </trkpt>
      <trkpt lat="44.10417" lon="1.38505">
        <ele>201.05</ele>
        <time>2017-02-04T14:30:41Z</time>
      </trkpt>
      <trkpt lat="44.10427" lon="1.38476">
        <ele>199.61</ele>
        <time>2017-02-04T14:31:00Z</time>
      </trkpt>
      <trkpt lat="44.10434" lon="1.38449">
        <ele>198.65</ele>
        <time>2017-02-04T14:31:18Z</time>
      </trkpt>
      <trkpt lat="44.10439" lon="1.3842">
        <ele>197.69</ele>
        <time>2017-02-04T14:31:36Z</time>
      </trkpt>
      <trkpt lat="44.1044" lon="1.38413">
        <ele>197.21</ele>
        <time>2017-02-04T14:31:49Z</time>
      </trkpt>
      <trkpt lat="44.10439" lon="1.38412">
        <ele>196.73</ele>
        <time>2017-02-04T14:32:07Z</time>
      </trkpt>
      <trkpt lat="44.10442" lon="1.38409">
        <ele>197.69</ele>
        <time>2017-02-04T14:32:25Z</time>
      </trkpt>
      <trkpt lat="44.10456" lon="1.38391">
        <ele>198.17</ele>
        <time>2017-02-04T14:32:43Z</time>
      </trkpt>
      <trkpt lat="44.10457" lon="1.38388">
        <ele>198.65</ele>
        <time>2017-02-04T14:32:46Z</time>
      </trkpt>
      <trkpt lat="44.1046" lon="1.38374">
        <ele>200.09</ele>
        <time>2017-02-04T14:33:01Z</time>
      </trkpt>
      <trkpt lat="44.10464" lon="1.3836">
        <ele>200.09</ele>
        <time>2017-02-04T14:33:14Z</time>
      </trkpt>
      <trkpt lat="44.10466" lon="1.38339">
        <ele>197.21</ele>
        <time>2017-02-04T14:33:30Z</time>
      </trkpt>
      <trkpt lat="44.10467" lon="1.3833">
        <ele>196.73</ele>
        <time>2017-02-04T14:33:42Z</time>
      </trkpt>
      <trkpt lat="44.10471" lon="1.38315">
        <ele>197.21</ele>
        <time>2017-02-04T14:33:58Z</time>
      </trkpt>
      <trkpt lat="44.10473" lon="1.38311">
        <ele>197.21</ele>
        <time>2017-02-04T14:34:01Z</time>
      </trkpt>
      <trkpt lat="44.10475" lon="1.38301">
        <ele>196.25</ele>
        <time>2017-02-04T14:34:12Z</time>
      </trkpt>
      <trkpt lat="44.10479" lon="1.38282">
        <ele>193.84</ele>
        <time>2017-02-04T14:34:28Z</time>
      </trkpt>
      <trkpt lat="44.10479" lon="1.38281">
        <ele>193.84</ele>
        <time>2017-02-04T14:34:29Z</time>
      </trkpt>
      <trkpt lat="44.10477" lon="1.38264">
        <ele>194.8</ele>
        <time>2017-02-04T14:34:44Z</time>
      </trkpt>
      <trkpt lat="44.1047" lon="1.38243">
        <ele>194.32</ele>
        <time>2017-02-04T14:35:01Z</time>
      </trkpt>
      <trkpt lat="44.10467" lon="1.38221">
        <ele>192.4</ele>
        <time>2017-02-04T14:35:20Z</time>
      </trkpt>
      <trkpt lat="44.10467" lon="1.38203">
        <ele>190.96</ele>
        <time>2017-02-04T14:35:38Z</time>
      </trkpt>
      <trkpt lat="44.10467" lon="1.38191">
        <ele>190</ele>
        <time>2017-02-04T14:35:54Z</time>
      </trkpt>
      <trkpt lat="44.10469" lon="1.3817">
        <ele>188.56</ele>
        <time>2017-02-04T14:36:12Z</time>
      </trkpt>
      <trkpt lat="44.10471" lon="1.38153">
        <ele>186.15</ele>
        <time>2017-02-04T14:36:28Z</time>
      </trkpt>
      <trkpt lat="44.10471" lon="1.38134">
        <ele>185.67</ele>
        <time>2017-02-04T14:36:44Z</time>
      </trkpt>
      <trkpt lat="44.10475" lon="1.38115">
        <ele>184.71</ele>
        <time>2017-02-04T14:36:59Z</time>
      </trkpt>
      <trkpt lat="44.10479" lon="1.38099">
        <ele>182.31</ele>
        <time>2017-02-04T14:37:11Z</time>
      </trkpt>
      <trkpt lat="44.10486" lon="1.38074">
        <ele>182.31</ele>
        <time>2017-02-04T14:37:28Z</time>
      </trkpt>
      <trkpt lat="44.1049" lon="1.38048">
        <ele>182.79</ele>
        <time>2017-02-04T14:37:47Z</time>
      </trkpt>
      <trkpt lat="44.10489" lon="1.38027">
        <ele>181.83</ele>
        <time>2017-02-04T14:38:04Z</time>
      </trkpt>
      <trkpt lat="44.10488" lon="1.37999">
        <ele>179.9</ele>
        <time>2017-02-04T14:38:23Z</time>
      </trkpt>
      <trkpt lat="44.10488" lon="1.37964">
        <ele>177.98</ele>
        <time>2017-02-04T14:38:45Z</time>
      </trkpt>
      <trkpt lat="44.10493" lon="1.37936">
        <ele>173.66</ele>
        <time>2017-02-04T14:39:03Z</time>
      </trkpt>
      <trkpt lat="44.10501" lon="1.37906">
        <ele>172.69</ele>
        <time>2017-02-04T14:39:23Z</time>
      </trkpt>
      <trkpt lat="44.10503" lon="1.37878">
        <ele>173.17</ele>
        <time>2017-02-04T14:39:42Z</time>
      </trkpt>
      <trkpt lat="44.10514" lon="1.37859">
        <ele>173.66</ele>
        <time>2017-02-04T14:40:01Z</time>
      </trkpt>
      <trkpt lat="44.10521" lon="1.37839">
        <ele>173.66</ele>
        <time>2017-02-04T14:40:18Z</time>
      </trkpt>
      <trkpt lat="44.10524" lon="1.37813">
        <ele>170.77</ele>
        <time>2017-02-04T14:40:36Z</time>
      </trkpt>
      <trkpt lat="44.10538" lon="1.3779">
        <ele>163.56</ele>
        <time>2017-02-04T14:40:54Z</time>
      </trkpt>
      <trkpt lat="44.10541" lon="1.37766">
        <ele>161.16</ele>
        <time>2017-02-04T14:41:11Z</time>
      </trkpt>
      <trkpt lat="44.10546" lon="1.37747">
        <ele>160.2</ele>
        <time>2017-02-04T14:41:30Z</time>
      </trkpt>
      <trkpt lat="44.10548" lon="1.37736">
        <ele>160.2</ele>
        <time>2017-02-04T14:41:52Z</time>
      </trkpt>
      <trkpt lat="44.1055" lon="1.37716">
        <ele>158.75</ele>
        <time>2017-02-04T14:42:09Z</time>
      </trkpt>
      <trkpt lat="44.10543" lon="1.37707">
        <ele>156.83</ele>
        <time>2017-02-04T14:42:24Z</time>
      </trkpt>
      <trkpt lat="44.1053" lon="1.37714">
        <ele>152.99</ele>
        <time>2017-02-04T14:42:46Z</time>
      </trkpt>
      <trkpt lat="44.10524" lon="1.37721">
        <ele>149.62</ele>
        <time>2017-02-04T14:43:08Z</time>
      </trkpt>
      <trkpt lat="44.1051" lon="1.37727">
        <ele>145.3</ele>
        <time>2017-02-04T14:43:28Z</time>
      </trkpt>
      <trkpt lat="44.10507" lon="1.37728">
        <ele>145.78</ele>
        <time>2017-02-04T14:43:57Z</time>
      </trkpt>
      <trkpt lat="44.10496" lon="1.37736">
        <ele>144.82</ele>
        <time>2017-02-04T14:44:14Z</time>
      </trkpt>
      <trkpt lat="44.10488" lon="1.37746">
        <ele>144.34</ele>
        <time>2017-02-04T14:44:33Z</time>
      </trkpt>
      <trkpt lat="44.10482" lon="1.37751">
        <ele>143.85</ele>
        <time>2017-02-04T14:44:51Z</time>
      </trkpt>
      <trkpt lat="44.10469" lon="1.3776">
        <ele>141.45</ele>
        <time>2017-02-04T14:45:06Z</time>
      </trkpt>
      <trkpt lat="44.10463" lon="1.37764">
        <ele>142.89</ele>
        <time>2017-02-04T14:45:24Z</time>
      </trkpt>
      <trkpt lat="44.1046" lon="1.37766">
        <ele>143.37</ele>
        <time>2017-02-04T14:45:45Z</time>
      </trkpt>
      <trkpt lat="44.10451" lon="1.37769">
        <ele>141.93</ele>
        <time>2017-02-04T14:46:06Z</time>
      </trkpt>
      <trkpt lat="44.10441" lon="1.37766">
        <ele>142.41</ele>
        <time>2017-02-04T14:46:24Z</time>
      </trkpt>
      <trkpt lat="44.10436" lon="1.37767">
        <ele>142.89</ele>
        <time>2017-02-04T14:46:51Z</time>
      </trkpt>
      <trkpt lat="44.10436" lon="1.3777">
        <ele>141.93</ele>
        <time>2017-02-04T14:47:10Z</time>
      </trkpt>
      <trkpt lat="44.10435" lon="1.37771">
        <ele>143.37</ele>
        <time>2017-02-04T14:47:40Z</time>
      </trkpt>
      <trkpt lat="44.10433" lon="1.37771">
        <ele>144.34</ele>
        <time>2017-02-04T14:48:07Z</time>
      </trkpt>
      <trkpt lat="44.10432" lon="1.37772">
        <ele>145.3</ele>
        <time>2017-02-04T14:48:37Z</time>
      </trkpt>
      <trkpt lat="44.10435" lon="1.37766">
        <ele>144.34</ele>
        <time>2017-02-04T14:48:56Z</time>
      </trkpt>
      <trkpt lat="44.10446" lon="1.37749">
        <ele>143.37</ele>
        <time>2017-02-04T14:49:12Z</time>
      </trkpt>
      <trkpt lat="44.10447" lon="1.37747">
        <ele>143.37</ele>
        <time>2017-02-04T14:49:13Z</time>
      </trkpt>
      <trkpt lat="44.10458" lon="1.37726">
        <ele>142.41</ele>
        <time>2017-02-04T14:49:31Z</time>
      </trkpt>
      <trkpt lat="44.10459" lon="1.37704">
        <ele>142.41</ele>
        <time>2017-02-04T14:49:48Z</time>
      </trkpt>
      <trkpt lat="44.10457" lon="1.37675">
        <ele>142.89</ele>
        <time>2017-02-04T14:50:06Z</time>
      </trkpt>
      <trkpt lat="44.10455" lon="1.37659">
        <ele>137.61</ele>
        <time>2017-02-04T14:50:25Z</time>
      </trkpt>
      <trkpt lat="44.10454" lon="1.37656">
        <ele>137.13</ele>
        <time>2017-02-04T14:50:27Z</time>
      </trkpt>
      <trkpt lat="44.10447" lon="1.37632">
        <ele>137.13</ele>
        <time>2017-02-04T14:50:44Z</time>
      </trkpt>
      <trkpt lat="44.1044" lon="1.37613">
        <ele>140.01</ele>
        <time>2017-02-04T14:51:00Z</time>
      </trkpt>
      <trkpt lat="44.10435" lon="1.3761">
        <ele>140.01</ele>
        <time>2017-02-04T14:51:16Z</time>
      </trkpt>
      <trkpt lat="44.10429" lon="1.37601">
        <ele>140.49</ele>
        <time>2017-02-04T14:51:37Z</time>
      </trkpt>
      <trkpt lat="44.10427" lon="1.37592">
        <ele>141.93</ele>
        <time>2017-02-04T14:51:51Z</time>
      </trkpt>
      <trkpt lat="44.10425" lon="1.37585">
        <ele>144.34</ele>
        <time>2017-02-04T14:52:14Z</time>
      </trkpt>
      <trkpt lat="44.10415" lon="1.37568">
        <ele>148.66</ele>
        <time>2017-02-04T14:52:32Z</time>
      </trkpt>
      <trkpt lat="44.10402" lon="1.37542">
        <ele>143.85</ele>
        <time>2017-02-04T14:52:49Z</time>
      </trkpt>
      <trkpt lat="44.10398" lon="1.37529">
        <ele>139.53</ele>
        <time>2017-02-04T14:53:05Z</time>
      </trkpt>
      <trkpt lat="44.10391" lon="1.37516">
        <ele>137.13</ele>
        <time>2017-02-04T14:53:18Z</time>
      </trkpt>
      <trkpt lat="44.10386" lon="1.37494">
        <ele>133.76</ele>
        <time>2017-02-04T14:53:36Z</time>
      </trkpt>
      <trkpt lat="44.10384" lon="1.37473">
        <ele>131.84</ele>
        <time>2017-02-04T14:53:52Z</time>
      </trkpt>
      <trkpt lat="44.10381" lon="1.37447">
        <ele>128.95</ele>
        <time>2017-02-04T14:54:11Z</time>
      </trkpt>
      <trkpt lat="44.10381" lon="1.37425">
        <ele>126.07</ele>
        <time>2017-02-04T14:54:28Z</time>
      </trkpt>
      <trkpt lat="44.1038" lon="1.37401">
        <ele>125.11</ele>
        <time>2017-02-04T14:54:46Z</time>
      </trkpt>
      <trkpt lat="44.10376" lon="1.37379">
        <ele>123.19</ele>
        <time>2017-02-04T14:55:04Z</time>
      </trkpt>
      <trkpt lat="44.1037" lon="1.37354">
        <ele>122.22</ele>
        <time>2017-02-04T14:55:20Z</time>
      </trkpt>
      <trkpt lat="44.10364" lon="1.3733">
        <ele>122.71</ele>
        <time>2017-02-04T14:55:38Z</time>
      </trkpt>
      <trkpt lat="44.10356" lon="1.37314">
        <ele>121.26</ele>
        <time>2017-02-04T14:55:54Z</time>
      </trkpt>
      <trkpt lat="44.10347" lon="1.37292">
        <ele>119.82</ele>
        <time>2017-02-04T14:56:10Z</time>
      </trkpt>
      <trkpt lat="44.10341" lon="1.3727">
        <ele>118.86</ele>
        <time>2017-02-04T14:56:26Z</time>
      </trkpt>
      <trkpt lat="44.10338" lon="1.37252">
        <ele>117.42</ele>
        <time>2017-02-04T14:56:40Z</time>
      </trkpt>
      <trkpt lat="44.10336" lon="1.37229">
        <ele>115.5</ele>
        <time>2017-02-04T14:56:54Z</time>
      </trkpt>
      <trkpt lat="44.10337" lon="1.37208">
        <ele>115.01</ele>
        <time>2017-02-04T14:57:09Z</time>
      </trkpt>
      <trkpt lat="44.10339" lon="1.37183">
        <ele>114.05</ele>
        <time>2017-02-04T14:57:26Z</time>
      </trkpt>
      <trkpt lat="44.10341" lon="1.37162">
        <ele>114.05</ele>
        <time>2017-02-04T14:57:43Z</time>
      </trkpt>
      <trkpt lat="44.10342" lon="1.37142">
        <ele>114.05</ele>
        <time>2017-02-04T14:57:57Z</time>
      </trkpt>
      <trkpt lat="44.10343" lon="1.37123">
        <ele>114.53</ele>
        <time>2017-02-04T14:58:12Z</time>
      </trkpt>
      <trkpt lat="44.10344" lon="1.37104">
        <ele>114.05</ele>
        <time>2017-02-04T14:58:26Z</time>
      </trkpt>
      <trkpt lat="44.10346" lon="1.3709">
        <ele>115.01</ele>
        <time>2017-02-04T14:58:42Z</time>
      </trkpt>
      <trkpt lat="44.10345" lon="1.37087">
        <ele>114.53</ele>
        <time>2017-02-04T14:58:54Z</time>
      </trkpt>
      <trkpt lat="44.10346" lon="1.37084">
        <ele>113.57</ele>
        <time>2017-02-04T14:59:09Z</time>
      </trkpt>
      <trkpt lat="44.10349" lon="1.37062">
        <ele>111.65</ele>
        <time>2017-02-04T14:59:27Z</time>
      </trkpt>
      <trkpt lat="44.10349" lon="1.37047">
        <ele>110.69</ele>
        <time>2017-02-04T14:59:45Z</time>
      </trkpt>
      <trkpt lat="44.10351" lon="1.37035">
        <ele>110.21</ele>
        <time>2017-02-04T14:59:54Z</time>
      </trkpt>
      <trkpt lat="44.10351" lon="1.37014">
        <ele>109.73</ele>
        <time>2017-02-04T15:00:10Z</time>
      </trkpt>
      <trkpt lat="44.10355" lon="1.37012">
        <ele>110.21</ele>
        <time>2017-02-04T15:00:22Z</time>
      </trkpt>
      <trkpt lat="44.10355" lon="1.37011">
        <ele>110.21</ele>
        <time>2017-02-04T15:00:23Z</time>
      </trkpt>
      <trkpt lat="44.10352" lon="1.36996">
        <ele>109.25</ele>
        <time>2017-02-04T15:00:39Z</time>
      </trkpt>
      <trkpt lat="44.10354" lon="1.36991">
        <ele>109.73</ele>
        <time>2017-02-04T15:00:51Z</time>
      </trkpt>
      <trkpt lat="44.10353" lon="1.36973">
        <ele>110.69</ele>
        <time>2017-02-04T15:01:04Z</time>
      </trkpt>
      <trkpt lat="44.10353" lon="1.36949">
        <ele>111.65</ele>
        <time>2017-02-04T15:01:21Z</time>
      </trkpt>
      <trkpt lat="44.10353" lon="1.36945">
        <ele>112.61</ele>
        <time>2017-02-04T15:01:32Z</time>
      </trkpt>
      <trkpt lat="44.10355" lon="1.36941">
        <ele>113.09</ele>
        <time>2017-02-04T15:01:36Z</time>
      </trkpt>
      <trkpt lat="44.10357" lon="1.3692">
        <ele>112.61</ele>
        <time>2017-02-04T15:01:52Z</time>
      </trkpt>
      <trkpt lat="44.10357" lon="1.36899">
        <ele>112.61</ele>
        <time>2017-02-04T15:02:07Z</time>
      </trkpt>
      <trkpt lat="44.10357" lon="1.3688">
        <ele>114.05</ele>
        <time>2017-02-04T15:02:21Z</time>
      </trkpt>
      <trkpt lat="44.10358" lon="1.36861">
        <ele>113.57</ele>
        <time>2017-02-04T15:02:34Z</time>
      </trkpt>
      <trkpt lat="44.10358" lon="1.36836">
        <ele>112.61</ele>
        <time>2017-02-04T15:02:51Z</time>
      </trkpt>
      <trkpt lat="44.10357" lon="1.36832">
        <ele>112.61</ele>
        <time>2017-02-04T15:02:54Z</time>
      </trkpt>
      <trkpt lat="44.10357" lon="1.36822">
        <ele>112.13</ele>
        <time>2017-02-04T15:03:09Z</time>
      </trkpt>
      <trkpt lat="44.10356" lon="1.36818">
        <ele>112.61</ele>
        <time>2017-02-04T15:03:27Z</time>
      </trkpt>
      <trkpt lat="44.10356" lon="1.36817">
        <ele>113.09</ele>
        <time>2017-02-04T15:03:45Z</time>
      </trkpt>
      <trkpt lat="44.10356" lon="1.36814">
        <ele>113.57</ele>
        <time>2017-02-04T15:03:59Z</time>
      </trkpt>
      <trkpt lat="44.10355" lon="1.36813">
        <ele>115.01</ele>
        <time>2017-02-04T15:04:06Z</time>
      </trkpt>
      <trkpt lat="44.10354" lon="1.3679">
        <ele>115.5</ele>
        <time>2017-02-04T15:04:23Z</time>
      </trkpt>
      <trkpt lat="44.10354" lon="1.36771">
        <ele>115.5</ele>
        <time>2017-02-04T15:04:37Z</time>
      </trkpt>
      <trkpt lat="44.10354" lon="1.3676">
        <ele>115.01</ele>
        <time>2017-02-04T15:04:48Z</time>
      </trkpt>
      <trkpt lat="44.10353" lon="1.36737">
        <ele>115.01</ele>
        <time>2017-02-04T15:05:04Z</time>
      </trkpt>
      <trkpt lat="44.10354" lon="1.3671">
        <ele>113.09</ele>
        <time>2017-02-04T15:05:21Z</time>
      </trkpt>
      <trkpt lat="44.10354" lon="1.36695">
        <ele>113.09</ele>
        <time>2017-02-04T15:05:31Z</time>
      </trkpt>
      <trkpt lat="44.10355" lon="1.36687">
        <ele>112.13</ele>
        <time>2017-02-04T15:05:36Z</time>
      </trkpt>
      <trkpt lat="44.10361" lon="1.36656">
        <ele>110.21</ele>
        <time>2017-02-04T15:05:56Z</time>
      </trkpt>
      <trkpt lat="44.10363" lon="1.36631">
        <ele>110.21</ele>
        <time>2017-02-04T15:06:12Z</time>
      </trkpt>
      <trkpt lat="44.10364" lon="1.36618">
        <ele>109.25</ele>
        <time>2017-02-04T15:06:27Z</time>
      </trkpt>
      <trkpt lat="44.10366" lon="1.36593">
        <ele>107.81</ele>
        <time>2017-02-04T15:06:43Z</time>
      </trkpt>
      <trkpt lat="44.10368" lon="1.36573">
        <ele>107.81</ele>
        <time>2017-02-04T15:06:56Z</time>
      </trkpt>
      <trkpt lat="44.10369" lon="1.36547">
        <ele>107.81</ele>
        <time>2017-02-04T15:07:13Z</time>
      </trkpt>
      <trkpt lat="44.10365" lon="1.36519">
        <ele>107.32</ele>
        <time>2017-02-04T15:07:30Z</time>
      </trkpt>
      <trkpt lat="44.10361" lon="1.36494">
        <ele>108.29</ele>
        <time>2017-02-04T15:07:45Z</time>
      </trkpt>
      <trkpt lat="44.1036" lon="1.36481">
        <ele>108.29</ele>
        <time>2017-02-04T15:07:55Z</time>
      </trkpt>
      <trkpt lat="44.1036" lon="1.36459">
        <ele>107.81</ele>
        <time>2017-02-04T15:08:10Z</time>
      </trkpt>
      <trkpt lat="44.10363" lon="1.36454">
        <ele>107.32</ele>
        <time>2017-02-04T15:08:15Z</time>
      </trkpt>
      <trkpt lat="44.10371" lon="1.36452">
        <ele>108.29</ele>
        <time>2017-02-04T15:08:31Z</time>
      </trkpt>
      <trkpt lat="44.10377" lon="1.36452">
        <ele>110.69</ele>
        <time>2017-02-04T15:08:43Z</time>
      </trkpt>
      <trkpt lat="44.10383" lon="1.36451">
        <ele>113.09</ele>
        <time>2017-02-04T15:08:59Z</time>
      </trkpt>
      <trkpt lat="44.10392" lon="1.36451">
        <ele>117.42</ele>
        <time>2017-02-04T15:09:14Z</time>
      </trkpt>
      <trkpt lat="44.10399" lon="1.3645">
        <ele>119.34</ele>
        <time>2017-02-04T15:09:27Z</time>
      </trkpt>
      <trkpt lat="44.10407" lon="1.3645">
        <ele>121.26</ele>
        <time>2017-02-04T15:09:42Z</time>
      </trkpt>
      <trkpt lat="44.10412" lon="1.36449">
        <ele>121.74</ele>
        <time>2017-02-04T15:09:59Z</time>
      </trkpt>
      <trkpt lat="44.10418" lon="1.36449">
        <ele>124.15</ele>
        <time>2017-02-04T15:10:15Z</time>
      </trkpt>
      <trkpt lat="44.10422" lon="1.36449">
        <ele>125.11</ele>
        <time>2017-02-04T15:10:33Z</time>
      </trkpt>
      <trkpt lat="44.10429" lon="1.36448">
        <ele>127.51</ele>
        <time>2017-02-04T15:10:49Z</time>
      </trkpt>
      <trkpt lat="44.1044" lon="1.36448">
        <ele>128.47</ele>
        <time>2017-02-04T15:11:08Z</time>
      </trkpt>
      <trkpt lat="44.10447" lon="1.36448">
        <ele>130.4</ele>
        <time>2017-02-04T15:11:30Z</time>
      </trkpt>
      <trkpt lat="44.10449" lon="1.36454">
        <ele>130.4</ele>
        <time>2017-02-04T15:11:36Z</time>
      </trkpt>
      <trkpt lat="44.10451" lon="1.36462">
        <ele>130.88</ele>
        <time>2017-02-04T15:11:42Z</time>
      </trkpt>
      <trkpt lat="44.10457" lon="1.36471">
        <ele>131.36</ele>
        <time>2017-02-04T15:11:55Z</time>
      </trkpt>
      <trkpt lat="44.10462" lon="1.36481">
        <ele>131.36</ele>
        <time>2017-02-04T15:12:09Z</time>
      </trkpt>
      <trkpt lat="44.10471" lon="1.36495">
        <ele>132.32</ele>
        <time>2017-02-04T15:12:24Z</time>
      </trkpt>
      <trkpt lat="44.10477" lon="1.36508">
        <ele>134.24</ele>
        <time>2017-02-04T15:12:38Z</time>
      </trkpt>
      <trkpt lat="44.10483" lon="1.36524">
        <ele>134.72</ele>
        <time>2017-02-04T15:12:53Z</time>
      </trkpt>
      <trkpt lat="44.10488" lon="1.36538">
        <ele>135.68</ele>
        <time>2017-02-04T15:13:05Z</time>
      </trkpt>
      <trkpt lat="44.10491" lon="1.36554">
        <ele>137.13</ele>
        <time>2017-02-04T15:13:19Z</time>
      </trkpt>
      <trkpt lat="44.10492" lon="1.36558">
        <ele>136.64</ele>
        <time>2017-02-04T15:13:22Z</time>
      </trkpt>
      <trkpt lat="44.10493" lon="1.3657">
        <ele>138.09</ele>
        <time>2017-02-04T15:13:36Z</time>
      </trkpt>
      <trkpt lat="44.10496" lon="1.36579">
        <ele>140.01</ele>
        <time>2017-02-04T15:13:51Z</time>
      </trkpt>
      <trkpt lat="44.10503" lon="1.36592">
        <ele>142.89</ele>
        <time>2017-02-04T15:14:06Z</time>
      </trkpt>
      <trkpt lat="44.10511" lon="1.36603">
        <ele>143.37</ele>
        <time>2017-02-04T15:14:18Z</time>
      </trkpt>
      <trkpt lat="44.1053" lon="1.36617">
        <ele>145.3</ele>
        <time>2017-02-04T15:14:35Z</time>
      </trkpt>
      <trkpt lat="44.1054" lon="1.36627">
        <ele>145.78</ele>
        <time>2017-02-04T15:14:49Z</time>
      </trkpt>
      <trkpt lat="44.10541" lon="1.3663">
        <ele>145.3</ele>
        <time>2017-02-04T15:14:51Z</time>
      </trkpt>
      <trkpt lat="44.1055" lon="1.36644">
        <ele>142.41</ele>
        <time>2017-02-04T15:15:05Z</time>
      </trkpt>
      <trkpt lat="44.10555" lon="1.36657">
        <ele>143.37</ele>
        <time>2017-02-04T15:15:23Z</time>
      </trkpt>
      <trkpt lat="44.10557" lon="1.36661">
        <ele>144.34</ele>
        <time>2017-02-04T15:15:40Z</time>
      </trkpt>
      <trkpt lat="44.10561" lon="1.36671">
        <ele>147.22</ele>
        <time>2017-02-04T15:15:55Z</time>
      </trkpt>
      <trkpt lat="44.10564" lon="1.36686">
        <ele>149.62</ele>
        <time>2017-02-04T15:16:09Z</time>
      </trkpt>
      <trkpt lat="44.10568" lon="1.36698">
        <ele>147.7</ele>
        <time>2017-02-04T15:16:31Z</time>
      </trkpt>
      <trkpt lat="44.10564" lon="1.36711">
        <ele>148.66</ele>
        <time>2017-02-04T15:16:47Z</time>
      </trkpt>
      <trkpt lat="44.1056" lon="1.36727">
        <ele>149.62</ele>
        <time>2017-02-04T15:17:02Z</time>
      </trkpt>
      <trkpt lat="44.10555" lon="1.3674">
        <ele>152.51</ele>
        <time>2017-02-04T15:17:16Z</time>
      </trkpt>
      <trkpt lat="44.1056" lon="1.36761">
        <ele>156.35</ele>
        <time>2017-02-04T15:17:32Z</time>
      </trkpt>
      <trkpt lat="44.10567" lon="1.36778">
        <ele>160.68</ele>
        <time>2017-02-04T15:17:48Z</time>
      </trkpt>
      <trkpt lat="44.10572" lon="1.36789">
        <ele>162.6</ele>
        <time>2017-02-04T15:18:03Z</time>
      </trkpt>
      <trkpt lat="44.10579" lon="1.36801">
        <ele>163.56</ele>
        <time>2017-02-04T15:18:19Z</time>
      </trkpt>
      <trkpt lat="44.10587" lon="1.36813">
        <ele>162.6</ele>
        <time>2017-02-04T15:18:34Z</time>
      </trkpt>
      <trkpt lat="44.10594" lon="1.3682">
        <ele>165.48</ele>
        <time>2017-02-04T15:18:50Z</time>
      </trkpt>
      <trkpt lat="44.106" lon="1.36832">
        <ele>166.45</ele>
        <time>2017-02-04T15:19:08Z</time>
      </trkpt>
      <trkpt lat="44.10604" lon="1.36841">
        <ele>167.89</ele>
        <time>2017-02-04T15:19:22Z</time>
      </trkpt>
      <trkpt lat="44.10607" lon="1.36855">
        <ele>169.81</ele>
        <time>2017-02-04T15:19:39Z</time>
      </trkpt>
      <trkpt lat="44.10608" lon="1.36869">
        <ele>172.21</ele>
        <time>2017-02-04T15:19:55Z</time>
      </trkpt>
      <trkpt lat="44.10607" lon="1.36879">
        <ele>174.62</ele>
        <time>2017-02-04T15:20:07Z</time>
      </trkpt>
      <trkpt lat="44.10609" lon="1.36893">
        <ele>176.54</ele>
        <time>2017-02-04T15:20:19Z</time>
      </trkpt>
      <trkpt lat="44.10611" lon="1.36897">
        <ele>175.1</ele>
        <time>2017-02-04T15:20:32Z</time>
      </trkpt>
      <trkpt lat="44.10616" lon="1.36911">
        <ele>178.94</ele>
        <time>2017-02-04T15:20:45Z</time>
      </trkpt>
      <trkpt lat="44.10624" lon="1.36921">
        <ele>180.87</ele>
        <time>2017-02-04T15:20:58Z</time>
      </trkpt>
      <trkpt lat="44.10626" lon="1.36922">
        <ele>180.38</ele>
        <time>2017-02-04T15:21:10Z</time>
      </trkpt>
      <trkpt lat="44.10629" lon="1.3692">
        <ele>179.9</ele>
        <time>2017-02-04T15:21:27Z</time>
      </trkpt>
      <trkpt lat="44.1063" lon="1.3692">
        <ele>178.94</ele>
        <time>2017-02-04T15:21:45Z</time>
      </trkpt>
      <trkpt lat="44.1063" lon="1.36919">
        <ele>178.94</ele>
        <time>2017-02-04T15:21:54Z</time>
      </trkpt>
      <trkpt lat="44.1063" lon="1.36922">
        <ele>178.46</ele>
        <time>2017-02-04T15:22:10Z</time>
      </trkpt>
      <trkpt lat="44.10631" lon="1.36923">
        <ele>177.02</ele>
        <time>2017-02-04T15:22:46Z</time>
      </trkpt>
      <trkpt lat="44.10631" lon="1.36923">
        <ele>177.02</ele>
        <time>2017-02-04T15:23:22Z</time>
      </trkpt>
      <trkpt lat="44.10632" lon="1.36923">
        <ele>177.5</ele>
        <time>2017-02-04T15:23:56Z</time>
      </trkpt>
      <trkpt lat="44.10631" lon="1.36924">
        <ele>178.46</ele>
        <time>2017-02-04T15:24:28Z</time>
      </trkpt>
      <trkpt lat="44.10632" lon="1.36924">
        <ele>178.46</ele>
        <time>2017-02-04T15:24:59Z</time>
      </trkpt>
      <trkpt lat="44.10633" lon="1.36923">
        <ele>178.46</ele>
        <time>2017-02-04T15:25:34Z</time>
      </trkpt>
      <trkpt lat="44.10632" lon="1.36924">
        <ele>177.98</ele>
        <time>2017-02-04T15:26:06Z</time>
      </trkpt>
      <trkpt lat="44.10633" lon="1.36924">
        <ele>177.98</ele>
        <time>2017-02-04T15:26:38Z</time>
      </trkpt>
      <trkpt lat="44.10633" lon="1.36925">
        <ele>177.98</ele>
        <time>2017-02-04T15:27:15Z</time>
      </trkpt>
      <trkpt lat="44.10634" lon="1.36926">
        <ele>177.98</ele>
        <time>2017-02-04T15:27:52Z</time>
      </trkpt>
      <trkpt lat="44.10634" lon="1.36926">
        <ele>177.5</ele>
        <time>2017-02-04T15:28:34Z</time>
      </trkpt>
      <trkpt lat="44.10635" lon="1.36925">
        <ele>177.98</ele>
        <time>2017-02-04T15:29:13Z</time>
      </trkpt>
      <trkpt lat="44.10635" lon="1.36927">
        <ele>177.5</ele>
        <time>2017-02-04T15:29:54Z</time>
      </trkpt>
      <trkpt lat="44.10636" lon="1.36927">
        <ele>177.02</ele>
        <time>2017-02-04T15:30:32Z</time>
      </trkpt>
      <trkpt lat="44.10636" lon="1.36926">
        <ele>177.02</ele>
        <time>2017-02-04T15:31:08Z</time>
      </trkpt>
      <trkpt lat="44.10636" lon="1.36925">
        <ele>177.02</ele>
        <time>2017-02-04T15:31:47Z</time>
      </trkpt>
      <trkpt lat="44.10636" lon="1.36926">
        <ele>177.5</ele>
        <time>2017-02-04T15:32:27Z</time>
      </trkpt>
      <trkpt lat="44.10635" lon="1.36927">
        <ele>177.98</ele>
        <time>2017-02-04T15:33:05Z</time>
      </trkpt>
      <trkpt lat="44.10634" lon="1.36926">
        <ele>177.98</ele>
        <time>2017-02-04T15:33:44Z</time>
      </trkpt>
      <trkpt lat="44.10634" lon="1.36924">
        <ele>177.98</ele>
        <time>2017-02-04T15:34:23Z</time>
      </trkpt>
      <trkpt lat="44.10633" lon="1.36925">
        <ele>177.5</ele>
        <time>2017-02-04T15:35:00Z</time>
      </trkpt>
      <trkpt lat="44.10633" lon="1.36925">
        <ele>177.5</ele>
        <time>2017-02-04T15:35:28Z</time>
      </trkpt>
      <trkpt lat="44.10633" lon="1.36925">
        <ele>177.02</ele>
        <time>2017-02-04T15:35:55Z</time>
      </trkpt>
      <trkpt lat="44.10634" lon="1.36925">
        <ele>177.5</ele>
        <time>2017-02-04T15:36:15Z</time>
      </trkpt>
      <trkpt lat="44.10635" lon="1.36924">
        <ele>178.46</ele>
        <time>2017-02-04T15:36:32Z</time>
      </trkpt>
      <trkpt lat="44.1064" lon="1.36921">
        <ele>180.87</ele>
        <time>2017-02-04T15:36:47Z</time>
      </trkpt>
      <trkpt lat="44.1065" lon="1.36912">
        <ele>181.83</ele>
        <time>2017-02-04T15:37:03Z</time>
      </trkpt>
      <trkpt lat="44.10658" lon="1.36908">
        <ele>183.27</ele>
        <time>2017-02-04T15:37:22Z</time>
      </trkpt>
      <trkpt lat="44.10662" lon="1.36906">
        <ele>183.27</ele>
        <time>2017-02-04T15:37:40Z</time>
      </trkpt>
      <trkpt lat="44.10667" lon="1.36903">
        <ele>184.71</ele>
        <time>2017-02-04T15:37:57Z</time>
      </trkpt>
      <trkpt lat="44.10674" lon="1.36901">
        <ele>186.15</ele>
        <time>2017-02-04T15:38:15Z</time>
      </trkpt>
      <trkpt lat="44.10694" lon="1.36898">
        <ele>187.59</ele>
        <time>2017-02-04T15:38:33Z</time>
      </trkpt>
      <trkpt lat="44.10716" lon="1.36896">
        <ele>189.04</ele>
        <time>2017-02-04T15:38:49Z</time>
      </trkpt>
      <trkpt lat="44.1074" lon="1.36892">
        <ele>192.4</ele>
        <time>2017-02-04T15:39:08Z</time>
      </trkpt>
      <trkpt lat="44.10757" lon="1.36889">
        <ele>196.73</ele>
        <time>2017-02-04T15:39:23Z</time>
      </trkpt>
      <trkpt lat="44.10771" lon="1.3689">
        <ele>196.73</ele>
        <time>2017-02-04T15:39:37Z</time>
      </trkpt>
      <trkpt lat="44.10773" lon="1.36888">
        <ele>197.69</ele>
        <time>2017-02-04T15:39:53Z</time>
      </trkpt>
      <trkpt lat="44.10773" lon="1.36887">
        <ele>197.69</ele>
        <time>2017-02-04T15:40:10Z</time>
      </trkpt>
      <trkpt lat="44.10773" lon="1.36886">
        <ele>197.21</ele>
        <time>2017-02-04T15:40:39Z</time>
      </trkpt>
      <trkpt lat="44.10775" lon="1.36887">
        <ele>197.69</ele>
        <time>2017-02-04T15:41:02Z</time>
      </trkpt>
      <trkpt lat="44.10777" lon="1.36888">
        <ele>196.73</ele>
        <time>2017-02-04T15:41:19Z</time>
      </trkpt>
      <trkpt lat="44.10776" lon="1.36888">
        <ele>197.21</ele>
        <time>2017-02-04T15:41:36Z</time>
      </trkpt>
      <trkpt lat="44.10776" lon="1.36888">
        <ele>197.21</ele>
        <time>2017-02-04T15:41:55Z</time>
      </trkpt>
      <trkpt lat="44.10776" lon="1.36888">
        <ele>197.69</ele>
        <time>2017-02-04T15:42:24Z</time>
      </trkpt>
      <trkpt lat="44.10777" lon="1.36889">
        <ele>198.17</ele>
        <time>2017-02-04T15:42:53Z</time>
      </trkpt>
      <trkpt lat="44.10777" lon="1.36888">
        <ele>198.65</ele>
        <time>2017-02-04T15:43:24Z</time>
      </trkpt>
      <trkpt lat="44.10777" lon="1.36888">
        <ele>199.13</ele>
        <time>2017-02-04T15:43:44Z</time>
      </trkpt>
      <trkpt lat="44.10777" lon="1.36888">
        <ele>198.65</ele>
        <time>2017-02-04T15:44:12Z</time>
      </trkpt>
      <trkpt lat="44.10777" lon="1.36891">
        <ele>198.65</ele>
        <time>2017-02-04T15:44:21Z</time>
      </trkpt>
      <trkpt lat="44.10777" lon="1.36894">
        <ele>198.65</ele>
        <time>2017-02-04T15:44:23Z</time>
      </trkpt>
      <trkpt lat="44.10775" lon="1.369">
        <ele>198.65</ele>
        <time>2017-02-04T15:44:27Z</time>
      </trkpt>
      <trkpt lat="44.10773" lon="1.36909">
        <ele>198.65</ele>
        <time>2017-02-04T15:44:34Z</time>
      </trkpt>
      <trkpt lat="44.10773" lon="1.36912">
        <ele>199.13</ele>
        <time>2017-02-04T15:44:36Z</time>
      </trkpt>
      <trkpt lat="44.10771" lon="1.36937">
        <ele>197.21</ele>
        <time>2017-02-04T15:44:54Z</time>
      </trkpt>
      <trkpt lat="44.10772" lon="1.36953">
        <ele>194.8</ele>
        <time>2017-02-04T15:45:07Z</time>
      </trkpt>
      <trkpt lat="44.10774" lon="1.3697">
        <ele>193.36</ele>
        <time>2017-02-04T15:45:21Z</time>
      </trkpt>
      <trkpt lat="44.10777" lon="1.36991">
        <ele>191.44</ele>
        <time>2017-02-04T15:45:37Z</time>
      </trkpt>
      <trkpt lat="44.10785" lon="1.37011">
        <ele>190.96</ele>
        <time>2017-02-04T15:45:54Z</time>
      </trkpt>
      <trkpt lat="44.10791" lon="1.37023">
        <ele>190.96</ele>
        <time>2017-02-04T15:46:07Z</time>
      </trkpt>
      <trkpt lat="44.10792" lon="1.37026">
        <ele>190.96</ele>
        <time>2017-02-04T15:46:10Z</time>
      </trkpt>
      <trkpt lat="44.10798" lon="1.37046">
        <ele>190</ele>
        <time>2017-02-04T15:46:26Z</time>
      </trkpt>
      <trkpt lat="44.10798" lon="1.37049">
        <ele>190</ele>
        <time>2017-02-04T15:46:28Z</time>
      </trkpt>
      <trkpt lat="44.10811" lon="1.3707">
        <ele>189.52</ele>
        <time>2017-02-04T15:46:47Z</time>
      </trkpt>
      <trkpt lat="44.10824" lon="1.37086">
        <ele>190.48</ele>
        <time>2017-02-04T15:47:03Z</time>
      </trkpt>
      <trkpt lat="44.10828" lon="1.3709">
        <ele>190.48</ele>
        <time>2017-02-04T15:47:08Z</time>
      </trkpt>
      <trkpt lat="44.10843" lon="1.37104">
        <ele>190.48</ele>
        <time>2017-02-04T15:47:26Z</time>
      </trkpt>
      <trkpt lat="44.10855" lon="1.37118">
        <ele>190</ele>
        <time>2017-02-04T15:47:42Z</time>
      </trkpt>
      <trkpt lat="44.10865" lon="1.3713">
        <ele>190</ele>
        <time>2017-02-04T15:47:57Z</time>
      </trkpt>
      <trkpt lat="44.10866" lon="1.37131">
        <ele>190</ele>
        <time>2017-02-04T15:47:58Z</time>
      </trkpt>
      <trkpt lat="44.10872" lon="1.37142">
        <ele>189.52</ele>
        <time>2017-02-04T15:48:11Z</time>
      </trkpt>
      <trkpt lat="44.10881" lon="1.37153">
        <ele>189.52</ele>
        <time>2017-02-04T15:48:26Z</time>
      </trkpt>
      <trkpt lat="44.1089" lon="1.37161">
        <ele>187.59</ele>
        <time>2017-02-04T15:48:42Z</time>
      </trkpt>
      <trkpt lat="44.10894" lon="1.37167">
        <ele>187.59</ele>
        <time>2017-02-04T15:48:59Z</time>
      </trkpt>
      <trkpt lat="44.10896" lon="1.37171">
        <ele>187.11</ele>
        <time>2017-02-04T15:49:14Z</time>
      </trkpt>
      <trkpt lat="44.10909" lon="1.37185">
        <ele>186.63</ele>
        <time>2017-02-04T15:49:31Z</time>
      </trkpt>
      <trkpt lat="44.10924" lon="1.37196">
        <ele>184.71</ele>
        <time>2017-02-04T15:49:49Z</time>
      </trkpt>
      <trkpt lat="44.10936" lon="1.37204">
        <ele>184.23</ele>
        <time>2017-02-04T15:50:07Z</time>
      </trkpt>
      <trkpt lat="44.10945" lon="1.37211">
        <ele>185.19</ele>
        <time>2017-02-04T15:50:21Z</time>
      </trkpt>
      <trkpt lat="44.1096" lon="1.37219">
        <ele>186.15</ele>
        <time>2017-02-04T15:50:38Z</time>
      </trkpt>
      <trkpt lat="44.1097" lon="1.37228">
        <ele>185.67</ele>
        <time>2017-02-04T15:50:51Z</time>
      </trkpt>
      <trkpt lat="44.10977" lon="1.37233">
        <ele>184.71</ele>
        <time>2017-02-04T15:51:06Z</time>
      </trkpt>
      <trkpt lat="44.10986" lon="1.3724">
        <ele>186.15</ele>
        <time>2017-02-04T15:51:19Z</time>
      </trkpt>
      <trkpt lat="44.10996" lon="1.37244">
        <ele>185.67</ele>
        <time>2017-02-04T15:51:33Z</time>
      </trkpt>
      <trkpt lat="44.10997" lon="1.37246">
        <ele>184.71</ele>
        <time>2017-02-04T15:51:47Z</time>
      </trkpt>
      <trkpt lat="44.10999" lon="1.37258">
        <ele>183.75</ele>
        <time>2017-02-04T15:52:02Z</time>
      </trkpt>
      <trkpt lat="44.11004" lon="1.37277">
        <ele>184.23</ele>
        <time>2017-02-04T15:52:19Z</time>
      </trkpt>
      <trkpt lat="44.11009" lon="1.37297">
        <ele>184.71</ele>
        <time>2017-02-04T15:52:37Z</time>
      </trkpt>
      <trkpt lat="44.11016" lon="1.37314">
        <ele>184.23</ele>
        <time>2017-02-04T15:52:53Z</time>
      </trkpt>
      <trkpt lat="44.1102" lon="1.3733">
        <ele>183.75</ele>
        <time>2017-02-04T15:53:07Z</time>
      </trkpt>
      <trkpt lat="44.11024" lon="1.37349">
        <ele>182.31</ele>
        <time>2017-02-04T15:53:23Z</time>
      </trkpt>
      <trkpt lat="44.11027" lon="1.37366">
        <ele>182.31</ele>
        <time>2017-02-04T15:53:39Z</time>
      </trkpt>
      <trkpt lat="44.1103" lon="1.37381">
        <ele>181.83</ele>
        <time>2017-02-04T15:53:53Z</time>
      </trkpt>
      <trkpt lat="44.11032" lon="1.37399">
        <ele>181.83</ele>
        <time>2017-02-04T15:54:09Z</time>
      </trkpt>
      <trkpt lat="44.11038" lon="1.37416">
        <ele>180.87</ele>
        <time>2017-02-04T15:54:23Z</time>
      </trkpt>
      <trkpt lat="44.11048" lon="1.37428">
        <ele>180.38</ele>
        <time>2017-02-04T15:54:35Z</time>
      </trkpt>
      <trkpt lat="44.11066" lon="1.3744">
        <ele>180.38</ele>
        <time>2017-02-04T15:54:54Z</time>
      </trkpt>
      <trkpt lat="44.11068" lon="1.37441">
        <ele>180.38</ele>
        <time>2017-02-04T15:54:57Z</time>
      </trkpt>
      <trkpt lat="44.11082" lon="1.37453">
        <ele>179.42</ele>
        <time>2017-02-04T15:55:14Z</time>
      </trkpt>
      <trkpt lat="44.11094" lon="1.37464">
        <ele>178.94</ele>
        <time>2017-02-04T15:55:30Z</time>
      </trkpt>
      <trkpt lat="44.11103" lon="1.37477">
        <ele>176.06</ele>
        <time>2017-02-04T15:55:46Z</time>
      </trkpt>
      <trkpt lat="44.1111" lon="1.37493">
        <ele>175.1</ele>
        <time>2017-02-04T15:56:02Z</time>
      </trkpt>
      <trkpt lat="44.11111" lon="1.37498">
        <ele>175.58</ele>
        <time>2017-02-04T15:56:07Z</time>
      </trkpt>
      <trkpt lat="44.11117" lon="1.37512">
        <ele>177.02</ele>
        <time>2017-02-04T15:56:22Z</time>
      </trkpt>
      <trkpt lat="44.11124" lon="1.37532">
        <ele>178.46</ele>
        <time>2017-02-04T15:56:39Z</time>
      </trkpt>
      <trkpt lat="44.1113" lon="1.37548">
        <ele>178.46</ele>
        <time>2017-02-04T15:56:54Z</time>
      </trkpt>
      <trkpt lat="44.11137" lon="1.37567">
        <ele>178.94</ele>
        <time>2017-02-04T15:57:11Z</time>
      </trkpt>
      <trkpt lat="44.11143" lon="1.37582">
        <ele>180.87</ele>
        <time>2017-02-04T15:57:26Z</time>
      </trkpt>
      <trkpt lat="44.11146" lon="1.37601">
        <ele>183.27</ele>
        <time>2017-02-04T15:57:44Z</time>
      </trkpt>
      <trkpt lat="44.11142" lon="1.37625">
        <ele>184.71</ele>
        <time>2017-02-04T15:58:03Z</time>
      </trkpt>
      <trkpt lat="44.11137" lon="1.3764">
        <ele>184.71</ele>
        <time>2017-02-04T15:58:16Z</time>
      </trkpt>
      <trkpt lat="44.11131" lon="1.37659">
        <ele>185.67</ele>
        <time>2017-02-04T15:58:32Z</time>
      </trkpt>
      <trkpt lat="44.11126" lon="1.37677">
        <ele>186.15</ele>
        <time>2017-02-04T15:58:47Z</time>
      </trkpt>
      <trkpt lat="44.11121" lon="1.37696">
        <ele>186.15</ele>
        <time>2017-02-04T15:59:03Z</time>
      </trkpt>
      <trkpt lat="44.11117" lon="1.37716">
        <ele>185.19</ele>
        <time>2017-02-04T15:59:20Z</time>
      </trkpt>
      <trkpt lat="44.11113" lon="1.37735">
        <ele>185.19</ele>
        <time>2017-02-04T15:59:36Z</time>
      </trkpt>
      <trkpt lat="44.11109" lon="1.37757">
        <ele>185.19</ele>
        <time>2017-02-04T15:59:54Z</time>
      </trkpt>
      <trkpt lat="44.11104" lon="1.37772">
        <ele>184.71</ele>
        <time>2017-02-04T16:00:08Z</time>
      </trkpt>
      <trkpt lat="44.11097" lon="1.37789">
        <ele>186.63</ele>
        <time>2017-02-04T16:00:24Z</time>
      </trkpt>
      <trkpt lat="44.11093" lon="1.37807">
        <ele>187.11</ele>
        <time>2017-02-04T16:00:39Z</time>
      </trkpt>
      <trkpt lat="44.11092" lon="1.37829">
        <ele>187.59</ele>
        <time>2017-02-04T16:00:56Z</time>
      </trkpt>
      <trkpt lat="44.11088" lon="1.37847">
        <ele>188.56</ele>
        <time>2017-02-04T16:01:12Z</time>
      </trkpt>
      <trkpt lat="44.11088" lon="1.3785">
        <ele>188.08</ele>
        <time>2017-02-04T16:01:25Z</time>
      </trkpt>
      <trkpt lat="44.11088" lon="1.37853">
        <ele>188.08</ele>
        <time>2017-02-04T16:01:49Z</time>
      </trkpt>
      <trkpt lat="44.11087" lon="1.37857">
        <ele>187.11</ele>
        <time>2017-02-04T16:02:09Z</time>
      </trkpt>
      <trkpt lat="44.11089" lon="1.3786">
        <ele>188.08</ele>
        <time>2017-02-04T16:02:35Z</time>
      </trkpt>
      <trkpt lat="44.11089" lon="1.37861">
        <ele>188.56</ele>
        <time>2017-02-04T16:02:50Z</time>
      </trkpt>
      <trkpt lat="44.11092" lon="1.37859">
        <ele>190</ele>
        <time>2017-02-04T16:03:09Z</time>
      </trkpt>
      <trkpt lat="44.11092" lon="1.37858">
        <ele>191.44</ele>
        <time>2017-02-04T16:03:30Z</time>
      </trkpt>
      <trkpt lat="44.11089" lon="1.37867">
        <ele>189.04</ele>
        <time>2017-02-04T16:03:46Z</time>
      </trkpt>
      <trkpt lat="44.11089" lon="1.37866">
        <ele>187.59</ele>
        <time>2017-02-04T16:04:07Z</time>
      </trkpt>
      <trkpt lat="44.11089" lon="1.37866">
        <ele>187.59</ele>
        <time>2017-02-04T16:04:30Z</time>
      </trkpt>
      <trkpt lat="44.11091" lon="1.37869">
        <ele>187.11</ele>
        <time>2017-02-04T16:04:49Z</time>
      </trkpt>
      <trkpt lat="44.11092" lon="1.37871">
        <ele>189.52</ele>
        <time>2017-02-04T16:05:16Z</time>
      </trkpt>
      <trkpt lat="44.11091" lon="1.37873">
        <ele>189.52</ele>
        <time>2017-02-04T16:05:37Z</time>
      </trkpt>
      <trkpt lat="44.1109" lon="1.37876">
        <ele>188.08</ele>
        <time>2017-02-04T16:05:59Z</time>
      </trkpt>
      <trkpt lat="44.11091" lon="1.3788">
        <ele>188.56</ele>
        <time>2017-02-04T16:06:14Z</time>
      </trkpt>
      <trkpt lat="44.11095" lon="1.37884">
        <ele>191.44</ele>
        <time>2017-02-04T16:06:31Z</time>
      </trkpt>
      <trkpt lat="44.11095" lon="1.37884">
        <ele>191.44</ele>
        <time>2017-02-04T16:06:35Z</time>
      </trkpt>
      <trkpt lat="44.11104" lon="1.37886">
        <ele>190.48</ele>
        <time>2017-02-04T16:06:43Z</time>
      </trkpt>
      <trkpt lat="44.11123" lon="1.37873">
        <ele>189.52</ele>
        <time>2017-02-04T16:07:01Z</time>
      </trkpt>
      <trkpt lat="44.11144" lon="1.37857">
        <ele>187.11</ele>
        <time>2017-02-04T16:07:19Z</time>
      </trkpt>
      <trkpt lat="44.11165" lon="1.37845">
        <ele>184.23</ele>
        <time>2017-02-04T16:07:36Z</time>
      </trkpt>
      <trkpt lat="44.11185" lon="1.37835">
        <ele>181.83</ele>
        <time>2017-02-04T16:07:54Z</time>
      </trkpt>
      <trkpt lat="44.11202" lon="1.37825">
        <ele>181.35</ele>
        <time>2017-02-04T16:08:10Z</time>
      </trkpt>
      <trkpt lat="44.11219" lon="1.37812">
        <ele>179.9</ele>
        <time>2017-02-04T16:08:28Z</time>
      </trkpt>
      <trkpt lat="44.11236" lon="1.37799">
        <ele>178.94</ele>
        <time>2017-02-04T16:08:46Z</time>
      </trkpt>
      <trkpt lat="44.11257" lon="1.37783">
        <ele>178.94</ele>
        <time>2017-02-04T16:09:06Z</time>
      </trkpt>
      <trkpt lat="44.11264" lon="1.37778">
        <ele>179.42</ele>
        <time>2017-02-04T16:09:14Z</time>
      </trkpt>
      <trkpt lat="44.11272" lon="1.37775">
        <ele>180.38</ele>
        <time>2017-02-04T16:09:23Z</time>
      </trkpt>
      <trkpt lat="44.11292" lon="1.37759">
        <ele>179.9</ele>
        <time>2017-02-04T16:09:41Z</time>
      </trkpt>
      <trkpt lat="44.11314" lon="1.37747">
        <ele>181.35</ele>
        <time>2017-02-04T16:09:59Z</time>
      </trkpt>
      <trkpt lat="44.1133" lon="1.37741">
        <ele>181.35</ele>
        <time>2017-02-04T16:10:15Z</time>
      </trkpt>
      <trkpt lat="44.11341" lon="1.37737">
        <ele>179.9</ele>
        <time>2017-02-04T16:10:25Z</time>
      </trkpt>
      <trkpt lat="44.11357" lon="1.37742">
        <ele>181.83</ele>
        <time>2017-02-04T16:10:42Z</time>
      </trkpt>
      <trkpt lat="44.11368" lon="1.37747">
        <ele>180.87</ele>
        <time>2017-02-04T16:10:56Z</time>
      </trkpt>
      <trkpt lat="44.11384" lon="1.37747">
        <ele>179.42</ele>
        <time>2017-02-04T16:11:12Z</time>
      </trkpt>
      <trkpt lat="44.11398" lon="1.37747">
        <ele>177.02</ele>
        <time>2017-02-04T16:11:27Z</time>
      </trkpt>
      <trkpt lat="44.11414" lon="1.37747">
        <ele>174.62</ele>
        <time>2017-02-04T16:11:43Z</time>
      </trkpt>
      <trkpt lat="44.11425" lon="1.37746">
        <ele>174.14</ele>
        <time>2017-02-04T16:11:57Z</time>
      </trkpt>
      <trkpt lat="44.11434" lon="1.37747">
        <ele>172.21</ele>
        <time>2017-02-04T16:12:13Z</time>
      </trkpt>
      <trkpt lat="44.1144" lon="1.37747">
        <ele>172.21</ele>
        <time>2017-02-04T16:12:30Z</time>
      </trkpt>
      <trkpt lat="44.11444" lon="1.37747">
        <ele>171.73</ele>
        <time>2017-02-04T16:12:48Z</time>
      </trkpt>
      <trkpt lat="44.11448" lon="1.37748">
        <ele>169.33</ele>
        <time>2017-02-04T16:13:05Z</time>
      </trkpt>
      <trkpt lat="44.11457" lon="1.37745">
        <ele>165.48</ele>
        <time>2017-02-04T16:13:20Z</time>
      </trkpt>
      <trkpt lat="44.11488" lon="1.3774">
        <ele>158.75</ele>
        <time>2017-02-04T16:13:37Z</time>
      </trkpt>
      <trkpt lat="44.11511" lon="1.37733">
        <ele>155.39</ele>
        <time>2017-02-04T16:13:52Z</time>
      </trkpt>
      <trkpt lat="44.11523" lon="1.37731">
        <ele>154.43</ele>
        <time>2017-02-04T16:14:08Z</time>
      </trkpt>
      <trkpt lat="44.1153" lon="1.37732">
        <ele>153.95</ele>
        <time>2017-02-04T16:14:26Z</time>
      </trkpt>
      <trkpt lat="44.11548" lon="1.37732">
        <ele>150.58</ele>
        <time>2017-02-04T16:14:42Z</time>
      </trkpt>
      <trkpt lat="44.11561" lon="1.3773">
        <ele>148.18</ele>
        <time>2017-02-04T16:14:57Z</time>
      </trkpt>
      <trkpt lat="44.11579" lon="1.37731">
        <ele>148.18</ele>
        <time>2017-02-04T16:15:15Z</time>
      </trkpt>
      <trkpt lat="44.11594" lon="1.37736">
        <ele>150.1</ele>
        <time>2017-02-04T16:15:30Z</time>
      </trkpt>
      <trkpt lat="44.1161" lon="1.37743">
        <ele>150.58</ele>
        <time>2017-02-04T16:15:47Z</time>
      </trkpt>
      <trkpt lat="44.11625" lon="1.37744">
        <ele>150.58</ele>
        <time>2017-02-04T16:16:02Z</time>
      </trkpt>
      <trkpt lat="44.11642" lon="1.3774">
        <ele>147.22</ele>
        <time>2017-02-04T16:16:20Z</time>
      </trkpt>
      <trkpt lat="44.11649" lon="1.37733">
        <ele>144.82</ele>
        <time>2017-02-04T16:16:27Z</time>
      </trkpt>
      <trkpt lat="44.11665" lon="1.37716">
        <ele>141.45</ele>
        <time>2017-02-04T16:16:44Z</time>
      </trkpt>
      <trkpt lat="44.11678" lon="1.37699">
        <ele>139.53</ele>
        <time>2017-02-04T16:17:01Z</time>
      </trkpt>
      <trkpt lat="44.11686" lon="1.37692">
        <ele>140.49</ele>
        <time>2017-02-04T16:17:12Z</time>
      </trkpt>
      <trkpt lat="44.11703" lon="1.37679">
        <ele>141.45</ele>
        <time>2017-02-04T16:17:29Z</time>
      </trkpt>
      <trkpt lat="44.11719" lon="1.37666">
        <ele>141.45</ele>
        <time>2017-02-04T16:17:47Z</time>
      </trkpt>
      <trkpt lat="44.1173" lon="1.37653">
        <ele>142.89</ele>
        <time>2017-02-04T16:18:02Z</time>
      </trkpt>
      <trkpt lat="44.11745" lon="1.37634">
        <ele>142.89</ele>
        <time>2017-02-04T16:18:20Z</time>
      </trkpt>
      <trkpt lat="44.11757" lon="1.37621">
        <ele>142.89</ele>
        <time>2017-02-04T16:18:35Z</time>
      </trkpt>
      <trkpt lat="44.11762" lon="1.37609">
        <ele>140.01</ele>
        <time>2017-02-04T16:18:53Z</time>
      </trkpt>
      <trkpt lat="44.11762" lon="1.37606">
        <ele>141.93</ele>
        <time>2017-02-04T16:19:13Z</time>
      </trkpt>
      <trkpt lat="44.11768" lon="1.376">
        <ele>140.97</ele>
        <time>2017-02-04T16:19:38Z</time>
      </trkpt>
      <trkpt lat="44.11772" lon="1.37598">
        <ele>139.53</ele>
        <time>2017-02-04T16:19:51Z</time>
      </trkpt>
      <trkpt lat="44.11781" lon="1.37587">
        <ele>140.01</ele>
        <time>2017-02-04T16:20:06Z</time>
      </trkpt>
      <trkpt lat="44.11793" lon="1.37569">
        <ele>140.97</ele>
        <time>2017-02-04T16:20:24Z</time>
      </trkpt>
      <trkpt lat="44.11803" lon="1.37561">
        <ele>141.45</ele>
        <time>2017-02-04T16:20:41Z</time>
      </trkpt>
      <trkpt lat="44.11802" lon="1.37556">
        <ele>139.53</ele>
        <time>2017-02-04T16:21:06Z</time>
      </trkpt>
      <trkpt lat="44.11804" lon="1.37554">
        <ele>138.57</ele>
        <time>2017-02-04T16:21:20Z</time>
      </trkpt>
      <trkpt lat="44.11818" lon="1.37547">
        <ele>139.05</ele>
        <time>2017-02-04T16:21:39Z</time>
      </trkpt>
      <trkpt lat="44.11836" lon="1.37536">
        <ele>139.05</ele>
        <time>2017-02-04T16:21:53Z</time>
      </trkpt>
      <trkpt lat="44.11856" lon="1.37525">
        <ele>139.05</ele>
        <time>2017-02-04T16:22:09Z</time>
      </trkpt>
      <trkpt lat="44.11872" lon="1.37516">
        <ele>134.72</ele>
        <time>2017-02-04T16:22:25Z</time>
      </trkpt>
      <trkpt lat="44.11887" lon="1.37507">
        <ele>129.92</ele>
        <time>2017-02-04T16:22:42Z</time>
      </trkpt>
      <trkpt lat="44.11909" lon="1.37498">
        <ele>127.03</ele>
        <time>2017-02-04T16:22:59Z</time>
      </trkpt>
      <trkpt lat="44.11926" lon="1.3749">
        <ele>124.63</ele>
        <time>2017-02-04T16:23:14Z</time>
      </trkpt>
      <trkpt lat="44.11931" lon="1.37481">
        <ele>121.26</ele>
        <time>2017-02-04T16:23:31Z</time>
      </trkpt>
      <trkpt lat="44.11933" lon="1.37479">
        <ele>119.34</ele>
        <time>2017-02-04T16:23:54Z</time>
      </trkpt>
      <trkpt lat="44.11934" lon="1.37477">
        <ele>120.78</ele>
        <time>2017-02-04T16:24:30Z</time>
      </trkpt>
      <trkpt lat="44.11934" lon="1.37477">
        <ele>120.3</ele>
        <time>2017-02-04T16:24:48Z</time>
      </trkpt>
      <trkpt lat="44.11934" lon="1.37476">
        <ele>121.74</ele>
        <time>2017-02-04T16:25:11Z</time>
      </trkpt>
      <trkpt lat="44.11934" lon="1.37477">
        <ele>123.67</ele>
        <time>2017-02-04T16:25:34Z</time>
      </trkpt>
      <trkpt lat="44.11933" lon="1.37478">
        <ele>125.11</ele>
        <time>2017-02-04T16:26:03Z</time>
      </trkpt>
      <trkpt lat="44.11934" lon="1.37477">
        <ele>125.11</ele>
        <time>2017-02-04T16:26:31Z</time>
      </trkpt>
      <trkpt lat="44.11935" lon="1.37478">
        <ele>124.63</ele>
        <time>2017-02-04T16:26:59Z</time>
      </trkpt>
      <trkpt lat="44.11934" lon="1.37479">
        <ele>123.67</ele>
        <time>2017-02-04T16:27:21Z</time>
      </trkpt>
      <trkpt lat="44.11934" lon="1.37479">
        <ele>123.67</ele>
        <time>2017-02-04T16:27:50Z</time>
      </trkpt>
      <trkpt lat="44.11935" lon="1.37481">
        <ele>123.67</ele>
        <time>2017-02-04T16:27:54Z</time>
      </trkpt>
      <trkpt lat="44.11937" lon="1.37482">
        <ele>123.67</ele>
        <time>2017-02-04T16:27:56Z</time>
      </trkpt>
      <trkpt lat="44.11951" lon="1.37488">
        <ele>123.67</ele>
        <time>2017-02-04T16:28:09Z</time>
      </trkpt>
      <trkpt lat="44.1197" lon="1.37496">
        <ele>124.63</ele>
        <time>2017-02-04T16:28:24Z</time>
      </trkpt>
      <trkpt lat="44.11983" lon="1.37502">
        <ele>126.07</ele>
        <time>2017-02-04T16:28:38Z</time>
      </trkpt>
      <trkpt lat="44.11997" lon="1.37507">
        <ele>126.07</ele>
        <time>2017-02-04T16:28:53Z</time>
      </trkpt>
      <trkpt lat="44.12014" lon="1.37514">
        <ele>123.67</ele>
        <time>2017-02-04T16:29:09Z</time>
      </trkpt>
      <trkpt lat="44.1203" lon="1.37523">
        <ele>121.74</ele>
        <time>2017-02-04T16:29:22Z</time>
      </trkpt>
      <trkpt lat="44.12039" lon="1.37522">
        <ele>122.22</ele>
        <time>2017-02-04T16:29:28Z</time>
      </trkpt>
      <trkpt lat="44.12056" lon="1.37518">
        <ele>124.15</ele>
        <time>2017-02-04T16:29:44Z</time>
      </trkpt>
      <trkpt lat="44.1206" lon="1.37514">
        <ele>124.15</ele>
        <time>2017-02-04T16:29:49Z</time>
      </trkpt>
      <trkpt lat="44.12067" lon="1.37514">
        <ele>124.15</ele>
        <time>2017-02-04T16:29:55Z</time>
      </trkpt>
      <trkpt lat="44.12078" lon="1.37534">
        <ele>123.67</ele>
        <time>2017-02-04T16:30:11Z</time>
      </trkpt>
      <trkpt lat="44.12084" lon="1.37549">
        <ele>123.67</ele>
        <time>2017-02-04T16:30:24Z</time>
      </trkpt>
      <trkpt lat="44.12084" lon="1.37549">
        <ele>123.19</ele>
        <time>2017-02-04T16:30:30Z</time>
      </trkpt>
      <trkpt lat="44.12087" lon="1.37551">
        <ele>123.19</ele>
        <time>2017-02-04T16:30:33Z</time>
      </trkpt>
      <trkpt lat="44.12088" lon="1.37553">
        <ele>123.19</ele>
        <time>2017-02-04T16:30:35Z</time>
      </trkpt>
      <trkpt lat="44.121" lon="1.37572">
        <ele>123.19</ele>
        <time>2017-02-04T16:30:51Z</time>
      </trkpt>
      <trkpt lat="44.12103" lon="1.37577">
        <ele>123.19</ele>
        <time>2017-02-04T16:30:55Z</time>
      </trkpt>
      <trkpt lat="44.12109" lon="1.37585">
        <ele>122.71</ele>
        <time>2017-02-04T16:31:02Z</time>
      </trkpt>
      <trkpt lat="44.1212" lon="1.37599">
        <ele>123.19</ele>
        <time>2017-02-04T16:31:18Z</time>
      </trkpt>
      <trkpt lat="44.12129" lon="1.37607">
        <ele>123.67</ele>
        <time>2017-02-04T16:31:31Z</time>
      </trkpt>
      <trkpt lat="44.12136" lon="1.37616">
        <ele>123.19</ele>
        <time>2017-02-04T16:31:41Z</time>
      </trkpt>
      <trkpt lat="44.12137" lon="1.37618">
        <ele>123.67</ele>
        <time>2017-02-04T16:31:43Z</time>
      </trkpt>
      <trkpt lat="44.12153" lon="1.37634">
        <ele>124.15</ele>
        <time>2017-02-04T16:32:00Z</time>
      </trkpt>
      <trkpt lat="44.12173" lon="1.37649">
        <ele>123.67</ele>
        <time>2017-02-04T16:32:18Z</time>
      </trkpt>
      <trkpt lat="44.12192" lon="1.37663">
        <ele>125.11</ele>
        <time>2017-02-04T16:32:35Z</time>
      </trkpt>
      <trkpt lat="44.12209" lon="1.37676">
        <ele>127.03</ele>
        <time>2017-02-04T16:32:51Z</time>
      </trkpt>
      <trkpt lat="44.12218" lon="1.37683">
        <ele>127.51</ele>
        <time>2017-02-04T16:33:00Z</time>
      </trkpt>
      <trkpt lat="44.12226" lon="1.37695">
        <ele>128.47</ele>
        <time>2017-02-04T16:33:11Z</time>
      </trkpt>
      <trkpt lat="44.12227" lon="1.37697">
        <ele>128.47</ele>
        <time>2017-02-04T16:33:13Z</time>
      </trkpt>
      <trkpt lat="44.12228" lon="1.37701">
        <ele>127.99</ele>
        <time>2017-02-04T16:33:16Z</time>
      </trkpt>
      <trkpt lat="44.12231" lon="1.37715">
        <ele>127.51</ele>
        <time>2017-02-04T16:33:27Z</time>
      </trkpt>
      <trkpt lat="44.12239" lon="1.37735">
        <ele>126.07</ele>
        <time>2017-02-04T16:33:43Z</time>
      </trkpt>
      <trkpt lat="44.12252" lon="1.37755">
        <ele>128.47</ele>
        <time>2017-02-04T16:34:00Z</time>
      </trkpt>
      <trkpt lat="44.12266" lon="1.3777">
        <ele>131.36</ele>
        <time>2017-02-04T16:34:15Z</time>
      </trkpt>
      <trkpt lat="44.12277" lon="1.37784">
        <ele>131.84</ele>
        <time>2017-02-04T16:34:28Z</time>
      </trkpt>
      <trkpt lat="44.12285" lon="1.37794">
        <ele>128.95</ele>
        <time>2017-02-04T16:34:39Z</time>
      </trkpt>
      <trkpt lat="44.12301" lon="1.37802">
        <ele>122.71</ele>
        <time>2017-02-04T16:34:55Z</time>
      </trkpt>
      <trkpt lat="44.12317" lon="1.37809">
        <ele>117.9</ele>
        <time>2017-02-04T16:35:09Z</time>
      </trkpt>
      <trkpt lat="44.12333" lon="1.37817">
        <ele>117.42</ele>
        <time>2017-02-04T16:35:23Z</time>
      </trkpt>
      <trkpt lat="44.12336" lon="1.37821">
        <ele>118.38</ele>
        <time>2017-02-04T16:35:27Z</time>
      </trkpt>
      <trkpt lat="44.12341" lon="1.37825">
        <ele>118.86</ele>
        <time>2017-02-04T16:35:31Z</time>
      </trkpt>
      <trkpt lat="44.12357" lon="1.3784">
        <ele>117.42</ele>
        <time>2017-02-04T16:35:46Z</time>
      </trkpt>
      <trkpt lat="44.12365" lon="1.37848">
        <ele>115.98</ele>
        <time>2017-02-04T16:35:54Z</time>
      </trkpt>
      <trkpt lat="44.12381" lon="1.37867">
        <ele>112.13</ele>
        <time>2017-02-04T16:36:10Z</time>
      </trkpt>
      <trkpt lat="44.12389" lon="1.3787">
        <ele>111.17</ele>
        <time>2017-02-04T16:36:16Z</time>
      </trkpt>
      <trkpt lat="44.12392" lon="1.37872">
        <ele>109.73</ele>
        <time>2017-02-04T16:36:19Z</time>
      </trkpt>
      <trkpt lat="44.1241" lon="1.37876">
        <ele>107.81</ele>
        <time>2017-02-04T16:36:33Z</time>
      </trkpt>
      <trkpt lat="44.12413" lon="1.37877">
        <ele>106.84</ele>
        <time>2017-02-04T16:36:36Z</time>
      </trkpt>
      <trkpt lat="44.12425" lon="1.37881">
        <ele>103</ele>
        <time>2017-02-04T16:36:49Z</time>
      </trkpt>
      <trkpt lat="44.12434" lon="1.37886">
        <ele>102.52</ele>
        <time>2017-02-04T16:37:04Z</time>
      </trkpt>
      <trkpt lat="44.12438" lon="1.37896">
        <ele>101.56</ele>
        <time>2017-02-04T16:37:17Z</time>
      </trkpt>
      <trkpt lat="44.12442" lon="1.37909">
        <ele>103.96</ele>
        <time>2017-02-04T16:37:32Z</time>
      </trkpt>
      <trkpt lat="44.12442" lon="1.37915">
        <ele>104.92</ele>
        <time>2017-02-04T16:37:41Z</time>
      </trkpt>
      <trkpt lat="44.12442" lon="1.37924">
        <ele>107.32</ele>
        <time>2017-02-04T16:37:54Z</time>
      </trkpt>
      <trkpt lat="44.12444" lon="1.37927">
        <ele>113.57</ele>
        <time>2017-02-04T16:38:20Z</time>
      </trkpt>
      <trkpt lat="44.12445" lon="1.37928">
        <ele>115.01</ele>
        <time>2017-02-04T16:38:47Z</time>
      </trkpt>
      <trkpt lat="44.12445" lon="1.37934">
        <ele>116.46</ele>
        <time>2017-02-04T16:38:59Z</time>
      </trkpt>
      <trkpt lat="44.12444" lon="1.37941">
        <ele>118.38</ele>
        <time>2017-02-04T16:39:11Z</time>
      </trkpt>
      <trkpt lat="44.12443" lon="1.37948">
        <ele>119.82</ele>
        <time>2017-02-04T16:39:27Z</time>
      </trkpt>
      <trkpt lat="44.1244" lon="1.37961">
        <ele>121.74</ele>
        <time>2017-02-04T16:39:45Z</time>
      </trkpt>
      <trkpt lat="44.1244" lon="1.37966">
        <ele>123.67</ele>
        <time>2017-02-04T16:39:51Z</time>
      </trkpt>
      <trkpt lat="44.12438" lon="1.37964">
        <ele>126.07</ele>
        <time>2017-02-04T16:40:01Z</time>
      </trkpt>
      <trkpt lat="44.12449" lon="1.3799">
        <ele>128.95</ele>
        <time>2017-02-04T16:40:19Z</time>
      </trkpt>
      <trkpt lat="44.12454" lon="1.38007">
        <ele>131.36</ele>
        <time>2017-02-04T16:40:33Z</time>
      </trkpt>
      <trkpt lat="44.1245" lon="1.38025">
        <ele>137.13</ele>
        <time>2017-02-04T16:40:49Z</time>
      </trkpt>
      <trkpt lat="44.1245" lon="1.38035">
        <ele>138.57</ele>
        <time>2017-02-04T16:40:56Z</time>
      </trkpt>
      <trkpt lat="44.12455" lon="1.38051">
        <ele>141.45</ele>
        <time>2017-02-04T16:41:09Z</time>
      </trkpt>
      <trkpt lat="44.12457" lon="1.38052">
        <ele>141.93</ele>
        <time>2017-02-04T16:41:11Z</time>
      </trkpt>
      <trkpt lat="44.12466" lon="1.38053">
        <ele>143.37</ele>
        <time>2017-02-04T16:41:29Z</time>
      </trkpt>
      <trkpt lat="44.12466" lon="1.38052">
        <ele>142.41</ele>
        <time>2017-02-04T16:41:56Z</time>
      </trkpt>
      <trkpt lat="44.12466" lon="1.38052">
        <ele>142.89</ele>
        <time>2017-02-04T16:42:02Z</time>
      </trkpt>
      <trkpt lat="44.12479" lon="1.38059">
        <ele>142.89</ele>
        <time>2017-02-04T16:42:16Z</time>
      </trkpt>
      <trkpt lat="44.12482" lon="1.3806">
        <ele>143.37</ele>
        <time>2017-02-04T16:42:20Z</time>
      </trkpt>
      <trkpt lat="44.12499" lon="1.38068">
        <ele>144.82</ele>
        <time>2017-02-04T16:42:37Z</time>
      </trkpt>
      <trkpt lat="44.12513" lon="1.38077">
        <ele>147.7</ele>
        <time>2017-02-04T16:42:53Z</time>
      </trkpt>
      <trkpt lat="44.12527" lon="1.38083">
        <ele>151.06</ele>
        <time>2017-02-04T16:43:07Z</time>
      </trkpt>
      <trkpt lat="44.12541" lon="1.3809">
        <ele>155.39</ele>
        <time>2017-02-04T16:43:24Z</time>
      </trkpt>
      <trkpt lat="44.12556" lon="1.38097">
        <ele>159.72</ele>
        <time>2017-02-04T16:43:41Z</time>
      </trkpt>
      <trkpt lat="44.12567" lon="1.38104">
        <ele>163.56</ele>
        <time>2017-02-04T16:43:56Z</time>
      </trkpt>
      <trkpt lat="44.12579" lon="1.38112">
        <ele>164.52</ele>
        <time>2017-02-04T16:44:10Z</time>
      </trkpt>
      <trkpt lat="44.12589" lon="1.38123">
        <ele>165.48</ele>
        <time>2017-02-04T16:44:25Z</time>
      </trkpt>
      <trkpt lat="44.12594" lon="1.38135">
        <ele>165.96</ele>
        <time>2017-02-04T16:44:38Z</time>
      </trkpt>
      <trkpt lat="44.12595" lon="1.38138">
        <ele>165.96</ele>
        <time>2017-02-04T16:44:40Z</time>
      </trkpt>
      <trkpt lat="44.12595" lon="1.38156">
        <ele>168.85</ele>
        <time>2017-02-04T16:44:56Z</time>
      </trkpt>
      <trkpt lat="44.12589" lon="1.38178">
        <ele>171.73</ele>
        <time>2017-02-04T16:45:14Z</time>
      </trkpt>
      <trkpt lat="44.12587" lon="1.38198">
        <ele>175.1</ele>
        <time>2017-02-04T16:45:29Z</time>
      </trkpt>
      <trkpt lat="44.12587" lon="1.38219">
        <ele>178.46</ele>
        <time>2017-02-04T16:45:45Z</time>
      </trkpt>
      <trkpt lat="44.12586" lon="1.38224">
        <ele>178.94</ele>
        <time>2017-02-04T16:45:58Z</time>
      </trkpt>
      <trkpt lat="44.12586" lon="1.38226">
        <ele>178.46</ele>
        <time>2017-02-04T16:46:21Z</time>
      </trkpt>
      <trkpt lat="44.12586" lon="1.3823">
        <ele>177.98</ele>
        <time>2017-02-04T16:46:42Z</time>
      </trkpt>
      <trkpt lat="44.12586" lon="1.38239">
        <ele>178.94</ele>
        <time>2017-02-04T16:47:00Z</time>
      </trkpt>
      <trkpt lat="44.12585" lon="1.38251">
        <ele>179.42</ele>
        <time>2017-02-04T16:47:16Z</time>
      </trkpt>
      <trkpt lat="44.12584" lon="1.38263">
        <ele>179.9</ele>
        <time>2017-02-04T16:47:31Z</time>
      </trkpt>
      <trkpt lat="44.12583" lon="1.38263">
        <ele>180.38</ele>
        <time>2017-02-04T16:47:48Z</time>
      </trkpt>
      <trkpt lat="44.12583" lon="1.3827">
        <ele>180.38</ele>
        <time>2017-02-04T16:48:02Z</time>
      </trkpt>
      <trkpt lat="44.12583" lon="1.38272">
        <ele>184.23</ele>
        <time>2017-02-04T16:48:36Z</time>
      </trkpt>
      <trkpt lat="44.12584" lon="1.38272">
        <ele>185.19</ele>
        <time>2017-02-04T16:48:58Z</time>
      </trkpt>
      <trkpt lat="44.12583" lon="1.38278">
        <ele>186.15</ele>
        <time>2017-02-04T16:49:03Z</time>
      </trkpt>
      <trkpt lat="44.12579" lon="1.38308">
        <ele>186.63</ele>
        <time>2017-02-04T16:49:21Z</time>
      </trkpt>
      <trkpt lat="44.12575" lon="1.38331">
        <ele>186.15</ele>
        <time>2017-02-04T16:49:37Z</time>
      </trkpt>
      <trkpt lat="44.12573" lon="1.38353">
        <ele>186.63</ele>
        <time>2017-02-04T16:49:52Z</time>
      </trkpt>
      <trkpt lat="44.1257" lon="1.38378">
        <ele>187.11</ele>
        <time>2017-02-04T16:50:09Z</time>
      </trkpt>
      <trkpt lat="44.12568" lon="1.38401">
        <ele>187.59</ele>
        <time>2017-02-04T16:50:26Z</time>
      </trkpt>
      <trkpt lat="44.12566" lon="1.38418">
        <ele>187.59</ele>
        <time>2017-02-04T16:50:40Z</time>
      </trkpt>
      <trkpt lat="44.12565" lon="1.38428">
        <ele>188.08</ele>
        <time>2017-02-04T16:50:52Z</time>
      </trkpt>
      <trkpt lat="44.12564" lon="1.38438">
        <ele>188.56</ele>
        <time>2017-02-04T16:51:04Z</time>
      </trkpt>
      <trkpt lat="44.12562" lon="1.38461">
        <ele>189.04</ele>
        <time>2017-02-04T16:51:17Z</time>
      </trkpt>
      <trkpt lat="44.12557" lon="1.38487">
        <ele>190.48</ele>
        <time>2017-02-04T16:51:33Z</time>
      </trkpt>
      <trkpt lat="44.12554" lon="1.3851">
        <ele>190.48</ele>
        <time>2017-02-04T16:51:48Z</time>
      </trkpt>
      <trkpt lat="44.12553" lon="1.38514">
        <ele>190.48</ele>
        <time>2017-02-04T16:51:50Z</time>
      </trkpt>
      <trkpt lat="44.12548" lon="1.3854">
        <ele>190</ele>
        <time>2017-02-04T16:52:07Z</time>
      </trkpt>
      <trkpt lat="44.12547" lon="1.38564">
        <ele>190</ele>
        <time>2017-02-04T16:52:23Z</time>
      </trkpt>
      <trkpt lat="44.12555" lon="1.38583">
        <ele>190.96</ele>
        <time>2017-02-04T16:52:39Z</time>
      </trkpt>
      <trkpt lat="44.12564" lon="1.38605">
        <ele>190.96</ele>
        <time>2017-02-04T16:52:56Z</time>
      </trkpt>
      <trkpt lat="44.12569" lon="1.38628">
        <ele>191.44</ele>
        <time>2017-02-04T16:53:13Z</time>
      </trkpt>
      <trkpt lat="44.1257" lon="1.38658">
        <ele>192.88</ele>
        <time>2017-02-04T16:53:32Z</time>
      </trkpt>
      <trkpt lat="44.12571" lon="1.38689">
        <ele>193.84</ele>
        <time>2017-02-04T16:53:51Z</time>
      </trkpt>
      <trkpt lat="44.1257" lon="1.38715">
        <ele>194.8</ele>
        <time>2017-02-04T16:54:07Z</time>
      </trkpt>
      <trkpt lat="44.12569" lon="1.38724">
        <ele>195.77</ele>
        <time>2017-02-04T16:54:15Z</time>
      </trkpt>
      <trkpt lat="44.12566" lon="1.38731">
        <ele>195.77</ele>
        <time>2017-02-04T16:54:21Z</time>
      </trkpt>
      <trkpt lat="44.12562" lon="1.38734">
        <ele>195.77</ele>
        <time>2017-02-04T16:54:25Z</time>
      </trkpt>
      <trkpt lat="44.12558" lon="1.38739">
        <ele>195.28</ele>
        <time>2017-02-04T16:54:41Z</time>
      </trkpt>
      <trkpt lat="44.1255" lon="1.38742">
        <ele>195.28</ele>
        <time>2017-02-04T16:54:53Z</time>
      </trkpt>
      <trkpt lat="44.1254" lon="1.38746">
        <ele>196.25</ele>
        <time>2017-02-04T16:55:09Z</time>
      </trkpt>
      <trkpt lat="44.1254" lon="1.38746">
        <ele>195.77</ele>
        <time>2017-02-04T16:55:24Z</time>
      </trkpt>
      <trkpt lat="44.12539" lon="1.38748">
        <ele>195.77</ele>
        <time>2017-02-04T16:55:41Z</time>
      </trkpt>
      <trkpt lat="44.12538" lon="1.38748">
        <ele>195.28</ele>
        <time>2017-02-04T16:56:07Z</time>
      </trkpt>
      <trkpt lat="44.12538" lon="1.38748">
        <ele>195.28</ele>
        <time>2017-02-04T16:56:27Z</time>
      </trkpt>
      <trkpt lat="44.12536" lon="1.38749">
        <ele>194.8</ele>
        <time>2017-02-04T16:56:42Z</time>
      </trkpt>
      <trkpt lat="44.12513" lon="1.38758">
        <ele>193.84</ele>
        <time>2017-02-04T16:57:01Z</time>
      </trkpt>
      <trkpt lat="44.1249" lon="1.38765">
        <ele>193.36</ele>
        <time>2017-02-04T16:57:19Z</time>
      </trkpt>
      <trkpt lat="44.12464" lon="1.38769">
        <ele>192.88</ele>
        <time>2017-02-04T16:57:39Z</time>
      </trkpt>
      <trkpt lat="44.12462" lon="1.38771">
        <ele>192.88</ele>
        <time>2017-02-04T16:57:41Z</time>
      </trkpt>
      <trkpt lat="44.12437" lon="1.38775">
        <ele>192.4</ele>
        <time>2017-02-04T16:58:01Z</time>
      </trkpt>
      <trkpt lat="44.12412" lon="1.38779">
        <ele>193.36</ele>
        <time>2017-02-04T16:58:21Z</time>
      </trkpt>
      <trkpt lat="44.12402" lon="1.3878">
        <ele>193.84</ele>
        <time>2017-02-04T16:58:29Z</time>
      </trkpt>
      <trkpt lat="44.12373" lon="1.38786">
        <ele>192.88</ele>
        <time>2017-02-04T16:58:50Z</time>
      </trkpt>
      <trkpt lat="44.12356" lon="1.38789">
        <ele>191.92</ele>
        <time>2017-02-04T16:59:02Z</time>
      </trkpt>
      <trkpt lat="44.12335" lon="1.38791">
        <ele>191.92</ele>
        <time>2017-02-04T16:59:18Z</time>
      </trkpt>
      <trkpt lat="44.1231" lon="1.38789">
        <ele>190.96</ele>
        <time>2017-02-04T16:59:37Z</time>
      </trkpt>
      <trkpt lat="44.12304" lon="1.38789">
        <ele>189.52</ele>
        <time>2017-02-04T16:59:45Z</time>
      </trkpt>
      <trkpt lat="44.12276" lon="1.38777">
        <ele>189.52</ele>
        <time>2017-02-04T17:00:06Z</time>
      </trkpt>
      <trkpt lat="44.1225" lon="1.38763">
        <ele>190.96</ele>
        <time>2017-02-04T17:00:27Z</time>
      </trkpt>
      <trkpt lat="44.12248" lon="1.38763">
        <ele>190.48</ele>
        <time>2017-02-04T17:00:28Z</time>
      </trkpt>
      <trkpt lat="44.12243" lon="1.3876">
        <ele>190.48</ele>
        <time>2017-02-04T17:00:32Z</time>
      </trkpt>
      <trkpt lat="44.12214" lon="1.38752">
        <ele>190.96</ele>
        <time>2017-02-04T17:00:53Z</time>
      </trkpt>
      <trkpt lat="44.12183" lon="1.38755">
        <ele>190.96</ele>
        <time>2017-02-04T17:01:14Z</time>
      </trkpt>
      <trkpt lat="44.12153" lon="1.38763">
        <ele>191.92</ele>
        <time>2017-02-04T17:01:37Z</time>
      </trkpt>
      <trkpt lat="44.12127" lon="1.38777">
        <ele>192.4</ele>
        <time>2017-02-04T17:01:58Z</time>
      </trkpt>
      <trkpt lat="44.12105" lon="1.38793">
        <ele>191.92</ele>
        <time>2017-02-04T17:02:17Z</time>
      </trkpt>
      <trkpt lat="44.12086" lon="1.38809">
        <ele>190.96</ele>
        <time>2017-02-04T17:02:34Z</time>
      </trkpt>
      <trkpt lat="44.12084" lon="1.38811">
        <ele>190.48</ele>
        <time>2017-02-04T17:02:36Z</time>
      </trkpt>
      <trkpt lat="44.1208" lon="1.38815">
        <ele>189.52</ele>
        <time>2017-02-04T17:02:50Z</time>
      </trkpt>
      <trkpt lat="44.1208" lon="1.38815">
        <ele>189.04</ele>
        <time>2017-02-04T17:03:20Z</time>
      </trkpt>
      <trkpt lat="44.12074" lon="1.38819">
        <ele>189.52</ele>
        <time>2017-02-04T17:03:50Z</time>
      </trkpt>
      <trkpt lat="44.12051" lon="1.38838">
        <ele>190.96</ele>
        <time>2017-02-04T17:04:11Z</time>
      </trkpt>
      <trkpt lat="44.12031" lon="1.38853">
        <ele>190.48</ele>
        <time>2017-02-04T17:04:30Z</time>
      </trkpt>
      <trkpt lat="44.12008" lon="1.38865">
        <ele>190.96</ele>
        <time>2017-02-04T17:04:49Z</time>
      </trkpt>
      <trkpt lat="44.11982" lon="1.3886">
        <ele>191.44</ele>
        <time>2017-02-04T17:05:09Z</time>
      </trkpt>
      <trkpt lat="44.11959" lon="1.38854">
        <ele>191.44</ele>
        <time>2017-02-04T17:05:28Z</time>
      </trkpt>
      <trkpt lat="44.11944" lon="1.38848">
        <ele>192.88</ele>
        <time>2017-02-04T17:05:40Z</time>
      </trkpt>
      <trkpt lat="44.11922" lon="1.38841">
        <ele>194.32</ele>
        <time>2017-02-04T17:05:56Z</time>
      </trkpt>
      <trkpt lat="44.11892" lon="1.38833">
        <ele>192.88</ele>
        <time>2017-02-04T17:06:20Z</time>
      </trkpt>
      <trkpt lat="44.11867" lon="1.38839">
        <ele>192.88</ele>
        <time>2017-02-04T17:06:39Z</time>
      </trkpt>
      <trkpt lat="44.11866" lon="1.38844">
        <ele>192.88</ele>
        <time>2017-02-04T17:06:43Z</time>
      </trkpt>
      <trkpt lat="44.11866" lon="1.38852">
        <ele>192.88</ele>
        <time>2017-02-04T17:06:58Z</time>
      </trkpt>
      <trkpt lat="44.11866" lon="1.38855">
        <ele>192.88</ele>
        <time>2017-02-04T17:07:03Z</time>
      </trkpt>
      <trkpt lat="44.11868" lon="1.38872">
        <ele>192.4</ele>
        <time>2017-02-04T17:07:16Z</time>
      </trkpt>
      <trkpt lat="44.1187" lon="1.38883">
        <ele>192.88</ele>
        <time>2017-02-04T17:07:23Z</time>
      </trkpt>
      <trkpt lat="44.11873" lon="1.38915">
        <ele>193.84</ele>
        <time>2017-02-04T17:07:42Z</time>
      </trkpt>
      <trkpt lat="44.11873" lon="1.38937">
        <ele>193.36</ele>
        <time>2017-02-04T17:07:58Z</time>
      </trkpt>
      <trkpt lat="44.11874" lon="1.38961">
        <ele>192.88</ele>
        <time>2017-02-04T17:08:13Z</time>
      </trkpt>
      <trkpt lat="44.11874" lon="1.39003">
        <ele>194.8</ele>
        <time>2017-02-04T17:08:36Z</time>
      </trkpt>
      <trkpt lat="44.11872" lon="1.39047">
        <ele>194.8</ele>
        <time>2017-02-04T17:08:59Z</time>
      </trkpt>
      <trkpt lat="44.1187" lon="1.39087">
        <ele>194.8</ele>
        <time>2017-02-04T17:09:20Z</time>
      </trkpt>
      <trkpt lat="44.11867" lon="1.39127">
        <ele>194.8</ele>
        <time>2017-02-04T17:09:41Z</time>
      </trkpt>
      <trkpt lat="44.11861" lon="1.3917">
        <ele>196.73</ele>
        <time>2017-02-04T17:10:04Z</time>
      </trkpt>
      <trkpt lat="44.11856" lon="1.39208">
        <ele>197.21</ele>
        <time>2017-02-04T17:10:24Z</time>
      </trkpt>
      <trkpt lat="44.11851" lon="1.39239">
        <ele>198.65</ele>
        <time>2017-02-04T17:10:42Z</time>
      </trkpt>
      <trkpt lat="44.11844" lon="1.39275">
        <ele>198.17</ele>
        <time>2017-02-04T17:11:02Z</time>
      </trkpt>
      <trkpt lat="44.11835" lon="1.39313">
        <ele>197.21</ele>
        <time>2017-02-04T17:11:24Z</time>
      </trkpt>
      <trkpt lat="44.1182" lon="1.39348">
        <ele>196.73</ele>
        <time>2017-02-04T17:11:45Z</time>
      </trkpt>
      <trkpt lat="44.11805" lon="1.39378">
        <ele>196.73</ele>
        <time>2017-02-04T17:12:05Z</time>
      </trkpt>
      <trkpt lat="44.1179" lon="1.3941">
        <ele>195.77</ele>
        <time>2017-02-04T17:12:25Z</time>
      </trkpt>
      <trkpt lat="44.11773" lon="1.39443">
        <ele>196.73</ele>
        <time>2017-02-04T17:12:47Z</time>
      </trkpt>
      <trkpt lat="44.11755" lon="1.39478">
        <ele>198.17</ele>
        <time>2017-02-04T17:13:09Z</time>
      </trkpt>
      <trkpt lat="44.11743" lon="1.39503">
        <ele>199.13</ele>
        <time>2017-02-04T17:13:26Z</time>
      </trkpt>
      <trkpt lat="44.11735" lon="1.39518">
        <ele>198.17</ele>
        <time>2017-02-04T17:13:37Z</time>
      </trkpt>
      <trkpt lat="44.11734" lon="1.39524">
        <ele>198.17</ele>
        <time>2017-02-04T17:13:41Z</time>
      </trkpt>
      <trkpt lat="44.11721" lon="1.39546">
        <ele>199.61</ele>
        <time>2017-02-04T17:13:57Z</time>
      </trkpt>
      <trkpt lat="44.11706" lon="1.39574">
        <ele>200.57</ele>
        <time>2017-02-04T17:14:17Z</time>
      </trkpt>
      <trkpt lat="44.11692" lon="1.39599">
        <ele>201.05</ele>
        <time>2017-02-04T17:14:35Z</time>
      </trkpt>
      <trkpt lat="44.11675" lon="1.39631">
        <ele>199.13</ele>
        <time>2017-02-04T17:14:56Z</time>
      </trkpt>
      <trkpt lat="44.11661" lon="1.39657">
        <ele>198.17</ele>
        <time>2017-02-04T17:15:14Z</time>
      </trkpt>
      <trkpt lat="44.11647" lon="1.39685">
        <ele>196.25</ele>
        <time>2017-02-04T17:15:33Z</time>
      </trkpt>
      <trkpt lat="44.11637" lon="1.39714">
        <ele>195.28</ele>
        <time>2017-02-04T17:15:51Z</time>
      </trkpt>
      <trkpt lat="44.11631" lon="1.39748">
        <ele>196.25</ele>
        <time>2017-02-04T17:16:11Z</time>
      </trkpt>
      <trkpt lat="44.11619" lon="1.39777">
        <ele>197.21</ele>
        <time>2017-02-04T17:16:30Z</time>
      </trkpt>
      <trkpt lat="44.11594" lon="1.39799">
        <ele>194.32</ele>
        <time>2017-02-04T17:16:51Z</time>
      </trkpt>
      <trkpt lat="44.11576" lon="1.39816">
        <ele>191.44</ele>
        <time>2017-02-04T17:17:08Z</time>
      </trkpt>
      <trkpt lat="44.11563" lon="1.3983">
        <ele>190</ele>
        <time>2017-02-04T17:17:22Z</time>
      </trkpt>
      <trkpt lat="44.11564" lon="1.39838">
        <ele>190</ele>
        <time>2017-02-04T17:17:27Z</time>
      </trkpt>
      <trkpt lat="44.11586" lon="1.39854">
        <ele>188.56</ele>
        <time>2017-02-04T17:17:48Z</time>
      </trkpt>
      <trkpt lat="44.11613" lon="1.39865">
        <ele>186.15</ele>
        <time>2017-02-04T17:18:10Z</time>
      </trkpt>
      <trkpt lat="44.11637" lon="1.39874">
        <ele>183.27</ele>
        <time>2017-02-04T17:18:31Z</time>
      </trkpt>
      <trkpt lat="44.11665" lon="1.39885">
        <ele>181.83</ele>
        <time>2017-02-04T17:18:53Z</time>
      </trkpt>
      <trkpt lat="44.11686" lon="1.399">
        <ele>182.31</ele>
        <time>2017-02-04T17:19:12Z</time>
      </trkpt>
      <trkpt lat="44.11704" lon="1.39928">
        <ele>181.35</ele>
        <time>2017-02-04T17:19:33Z</time>
      </trkpt>
      <trkpt lat="44.1172" lon="1.39958">
        <ele>180.87</ele>
        <time>2017-02-04T17:19:53Z</time>
      </trkpt>
      <trkpt lat="44.11739" lon="1.39982">
        <ele>181.35</ele>
        <time>2017-02-04T17:20:13Z</time>
      </trkpt>
      <trkpt lat="44.11758" lon="1.40007">
        <ele>183.27</ele>
        <time>2017-02-04T17:20:33Z</time>
      </trkpt>
      <trkpt lat="44.11769" lon="1.40028">
        <ele>183.75</ele>
        <time>2017-02-04T17:20:48Z</time>
      </trkpt>
      <trkpt lat="44.11781" lon="1.40058">
        <ele>184.23</ele>
        <time>2017-02-04T17:21:08Z</time>
      </trkpt>
      <trkpt lat="44.1179" lon="1.40088">
        <ele>183.75</ele>
        <time>2017-02-04T17:21:28Z</time>
      </trkpt>
      <trkpt lat="44.11795" lon="1.40096">
        <ele>184.71</ele>
        <time>2017-02-04T17:21:34Z</time>
      </trkpt>
      <trkpt lat="44.11809" lon="1.40098">
        <ele>186.63</ele>
        <time>2017-02-04T17:21:48Z</time>
      </trkpt>
      <trkpt lat="44.11811" lon="1.401">
        <ele>187.11</ele>
        <time>2017-02-04T17:21:50Z</time>
      </trkpt>
      <trkpt lat="44.11817" lon="1.40115">
        <ele>188.56</ele>
        <time>2017-02-04T17:22:06Z</time>
      </trkpt>
      <trkpt lat="44.11818" lon="1.40119">
        <ele>188.56</ele>
        <time>2017-02-04T17:22:25Z</time>
      </trkpt>
      <trkpt lat="44.11818" lon="1.40119">
        <ele>189.04</ele>
        <time>2017-02-04T17:22:49Z</time>
      </trkpt>
      <trkpt lat="44.11818" lon="1.40119">
        <ele>189.52</ele>
        <time>2017-02-04T17:23:03Z</time>
      </trkpt>
      <trkpt lat="44.11817" lon="1.40118">
        <ele>190.96</ele>
        <time>2017-02-04T17:23:26Z</time>
      </trkpt>
      <trkpt lat="44.11816" lon="1.40117">
        <ele>191.92</ele>
        <time>2017-02-04T17:23:37Z</time>
      </trkpt>
    </trkseg>
  </trk>
</gpx>